<?xml version="1.0" encoding="UTF-8" standalone="no" ?>
<gpx xmlns="http://www.topografix.com/GPX/1/1" xmlns:xsi="http://www.w3.org/2001/XMLSchema-instance" xsi:schemaLocation="http://www.topografix.com/GPX/1/1 http://www.topografix.com/GPX/1/1/gpx.xsd" version="1.1" creator="VisuGPX - https://www.visugpx.com">
  <metadata>
    <name>Locunolé - Querrien</name>
    <desc><![CDATA[Boucle au Pays des Roches du Diable - de superbes chemins]]></desc>
  </metadata>
  <trk>
    <name><![CDATA[OR-6914170--Locunolé:boucle Locunolé - Querrien]]></name>
    <trkseg>
      <trkpt lat="47.93812" lon="-3.47195">
        <ele>96</ele>
        <time>2017-01-13T22:15:34Z</time>
      </trkpt>
      <trkpt lat="47.93843" lon="-3.47168">
        <ele>94</ele>
        <time>2017-01-13T22:17:34Z</time>
      </trkpt>
      <trkpt lat="47.93897" lon="-3.47152">
        <ele>93</ele>
        <time>2017-01-13T22:19:34Z</time>
      </trkpt>
      <trkpt lat="47.93917" lon="-3.47142">
        <ele>92</ele>
        <time>2017-01-13T22:21:34Z</time>
      </trkpt>
      <trkpt lat="47.93928" lon="-3.47123">
        <ele>91</ele>
        <time>2017-01-13T22:23:34Z</time>
      </trkpt>
      <trkpt lat="47.9394" lon="-3.47102">
        <ele>88</ele>
        <time>2017-01-13T22:25:34Z</time>
      </trkpt>
      <trkpt lat="47.93949" lon="-3.47116">
        <ele>88</ele>
        <time>2017-01-13T22:27:34Z</time>
      </trkpt>
      <trkpt lat="47.93968" lon="-3.47112">
        <ele>85</ele>
        <time>2017-01-13T22:29:34Z</time>
      </trkpt>
      <trkpt lat="47.93983" lon="-3.47097">
        <ele>81</ele>
        <time>2017-01-13T22:31:34Z</time>
      </trkpt>
      <trkpt lat="47.94023" lon="-3.47107">
        <ele>75</ele>
        <time>2017-01-13T22:33:34Z</time>
      </trkpt>
      <trkpt lat="47.94074" lon="-3.47147">
        <ele>67</ele>
        <time>2017-01-13T22:35:34Z</time>
      </trkpt>
      <trkpt lat="47.94107" lon="-3.47191">
        <ele>62</ele>
        <time>2017-01-13T22:37:34Z</time>
      </trkpt>
      <trkpt lat="47.9412" lon="-3.47243">
        <ele>62</ele>
        <time>2017-01-13T22:39:34Z</time>
      </trkpt>
      <trkpt lat="47.94116" lon="-3.47184">
        <ele>59</ele>
        <time>2017-01-13T22:41:34Z</time>
      </trkpt>
      <trkpt lat="47.94131" lon="-3.47139">
        <ele>52</ele>
        <time>2017-01-13T22:43:34Z</time>
      </trkpt>
      <trkpt lat="47.94135" lon="-3.47168">
        <ele>53</ele>
        <time>2017-01-13T22:45:34Z</time>
      </trkpt>
      <trkpt lat="47.94141" lon="-3.47168">
        <ele>52</ele>
        <time>2017-01-13T22:47:34Z</time>
      </trkpt>
      <trkpt lat="47.9415" lon="-3.47173">
        <ele>50</ele>
        <time>2017-01-13T22:49:34Z</time>
      </trkpt>
      <trkpt lat="47.94158" lon="-3.47173">
        <ele>48</ele>
        <time>2017-01-13T22:51:34Z</time>
      </trkpt>
      <trkpt lat="47.94157" lon="-3.47248">
        <ele>54</ele>
        <time>2017-01-13T22:53:34Z</time>
      </trkpt>
      <trkpt lat="47.9416" lon="-3.47286">
        <ele>55</ele>
        <time>2017-01-13T22:55:34Z</time>
      </trkpt>
      <trkpt lat="47.94143" lon="-3.47363">
        <ele>63</ele>
        <time>2017-01-13T22:57:34Z</time>
      </trkpt>
      <trkpt lat="47.94134" lon="-3.47429">
        <ele>67</ele>
        <time>2017-01-13T22:59:34Z</time>
      </trkpt>
      <trkpt lat="47.94139" lon="-3.47474">
        <ele>66</ele>
        <time>2017-01-13T23:01:34Z</time>
      </trkpt>
      <trkpt lat="47.94162" lon="-3.47524">
        <ele>62</ele>
        <time>2017-01-13T23:03:34Z</time>
      </trkpt>
      <trkpt lat="47.94201" lon="-3.47616">
        <ele>62</ele>
        <time>2017-01-13T23:05:34Z</time>
      </trkpt>
      <trkpt lat="47.94245" lon="-3.47671">
        <ele>58</ele>
        <time>2017-01-13T23:07:34Z</time>
      </trkpt>
      <trkpt lat="47.94254" lon="-3.47729">
        <ele>59</ele>
        <time>2017-01-13T23:09:34Z</time>
      </trkpt>
      <trkpt lat="47.94257" lon="-3.47761">
        <ele>61</ele>
        <time>2017-01-13T23:11:34Z</time>
      </trkpt>
      <trkpt lat="47.94267" lon="-3.47793">
        <ele>63</ele>
        <time>2017-01-13T23:13:34Z</time>
      </trkpt>
      <trkpt lat="47.94276" lon="-3.47715">
        <ele>63</ele>
        <time>2017-01-13T23:15:34Z</time>
      </trkpt>
      <trkpt lat="47.94273" lon="-3.47628">
        <ele>65</ele>
        <time>2017-01-13T23:17:34Z</time>
      </trkpt>
      <trkpt lat="47.94274" lon="-3.47571">
        <ele>69</ele>
        <time>2017-01-13T23:19:34Z</time>
      </trkpt>
      <trkpt lat="47.94273" lon="-3.47534">
        <ele>71</ele>
        <time>2017-01-13T23:21:34Z</time>
      </trkpt>
      <trkpt lat="47.94276" lon="-3.47523">
        <ele>72</ele>
        <time>2017-01-13T23:23:34Z</time>
      </trkpt>
      <trkpt lat="47.94288" lon="-3.47514">
        <ele>75</ele>
        <time>2017-01-13T23:25:34Z</time>
      </trkpt>
      <trkpt lat="47.94325" lon="-3.47512">
        <ele>82</ele>
        <time>2017-01-13T23:27:34Z</time>
      </trkpt>
      <trkpt lat="47.94332" lon="-3.4744">
        <ele>84</ele>
        <time>2017-01-13T23:29:34Z</time>
      </trkpt>
      <trkpt lat="47.94345" lon="-3.47389">
        <ele>86</ele>
        <time>2017-01-13T23:31:34Z</time>
      </trkpt>
      <trkpt lat="47.94369" lon="-3.47336">
        <ele>89</ele>
        <time>2017-01-13T23:33:34Z</time>
      </trkpt>
      <trkpt lat="47.9438" lon="-3.47336">
        <ele>91</ele>
        <time>2017-01-13T23:35:34Z</time>
      </trkpt>
      <trkpt lat="47.9439" lon="-3.47337">
        <ele>93</ele>
        <time>2017-01-13T23:37:34Z</time>
      </trkpt>
      <trkpt lat="47.94388" lon="-3.47344">
        <ele>93</ele>
        <time>2017-01-13T23:39:34Z</time>
      </trkpt>
      <trkpt lat="47.94379" lon="-3.47447">
        <ele>93</ele>
        <time>2017-01-13T23:41:34Z</time>
      </trkpt>
      <trkpt lat="47.94373" lon="-3.47459">
        <ele>92</ele>
        <time>2017-01-13T23:43:34Z</time>
      </trkpt>
      <trkpt lat="47.94368" lon="-3.47491">
        <ele>91</ele>
        <time>2017-01-13T23:45:34Z</time>
      </trkpt>
      <trkpt lat="47.94377" lon="-3.47502">
        <ele>93</ele>
        <time>2017-01-13T23:47:34Z</time>
      </trkpt>
      <trkpt lat="47.94393" lon="-3.47505">
        <ele>96</ele>
        <time>2017-01-13T23:49:34Z</time>
      </trkpt>
      <trkpt lat="47.94381" lon="-3.47562">
        <ele>92</ele>
        <time>2017-01-13T23:51:34Z</time>
      </trkpt>
      <trkpt lat="47.94381" lon="-3.47668">
        <ele>89</ele>
        <time>2017-01-13T23:53:34Z</time>
      </trkpt>
      <trkpt lat="47.94376" lon="-3.47727">
        <ele>87</ele>
        <time>2017-01-13T23:55:34Z</time>
      </trkpt>
      <trkpt lat="47.94374" lon="-3.47817">
        <ele>82</ele>
        <time>2017-01-13T23:57:34Z</time>
      </trkpt>
      <trkpt lat="47.94372" lon="-3.47873">
        <ele>81</ele>
        <time>2017-01-13T23:59:34Z</time>
      </trkpt>
      <trkpt lat="47.94373" lon="-3.47905">
        <ele>82</ele>
        <time>2017-01-14T00:01:34Z</time>
      </trkpt>
      <trkpt lat="47.94363" lon="-3.47942">
        <ele>80</ele>
        <time>2017-01-14T00:03:34Z</time>
      </trkpt>
      <trkpt lat="47.94351" lon="-3.47962">
        <ele>78</ele>
        <time>2017-01-14T00:05:34Z</time>
      </trkpt>
      <trkpt lat="47.94336" lon="-3.4798">
        <ele>74</ele>
        <time>2017-01-14T00:07:34Z</time>
      </trkpt>
      <trkpt lat="47.94325" lon="-3.48018">
        <ele>75</ele>
        <time>2017-01-14T00:09:34Z</time>
      </trkpt>
      <trkpt lat="47.94324" lon="-3.48069">
        <ele>79</ele>
        <time>2017-01-14T00:11:34Z</time>
      </trkpt>
      <trkpt lat="47.94334" lon="-3.48108">
        <ele>83</ele>
        <time>2017-01-14T00:13:34Z</time>
      </trkpt>
      <trkpt lat="47.94382" lon="-3.48206">
        <ele>95</ele>
        <time>2017-01-14T00:15:34Z</time>
      </trkpt>
      <trkpt lat="47.94395" lon="-3.48234">
        <ele>97</ele>
        <time>2017-01-14T00:17:34Z</time>
      </trkpt>
      <trkpt lat="47.94415" lon="-3.48318">
        <ele>102</ele>
        <time>2017-01-14T00:19:34Z</time>
      </trkpt>
      <trkpt lat="47.94427" lon="-3.48356">
        <ele>103</ele>
        <time>2017-01-14T00:21:34Z</time>
      </trkpt>
      <trkpt lat="47.94474" lon="-3.48429">
        <ele>110</ele>
        <time>2017-01-14T00:23:34Z</time>
      </trkpt>
      <trkpt lat="47.945" lon="-3.48463">
        <ele>114</ele>
        <time>2017-01-14T00:25:34Z</time>
      </trkpt>
      <trkpt lat="47.9454" lon="-3.48502">
        <ele>116</ele>
        <time>2017-01-14T00:27:34Z</time>
      </trkpt>
      <trkpt lat="47.94576" lon="-3.48535">
        <ele>119</ele>
        <time>2017-01-14T00:29:34Z</time>
      </trkpt>
      <trkpt lat="47.9459" lon="-3.48537">
        <ele>119</ele>
        <time>2017-01-14T00:31:34Z</time>
      </trkpt>
      <trkpt lat="47.94664" lon="-3.48501">
        <ele>119</ele>
        <time>2017-01-14T00:33:34Z</time>
      </trkpt>
      <trkpt lat="47.94793" lon="-3.48451">
        <ele>122</ele>
        <time>2017-01-14T00:35:34Z</time>
      </trkpt>
      <trkpt lat="47.94816" lon="-3.4845">
        <ele>122</ele>
        <time>2017-01-14T00:37:34Z</time>
      </trkpt>
      <trkpt lat="47.94848" lon="-3.48451">
        <ele>123</ele>
        <time>2017-01-14T00:39:34Z</time>
      </trkpt>
      <trkpt lat="47.949" lon="-3.48471">
        <ele>124</ele>
        <time>2017-01-14T00:41:34Z</time>
      </trkpt>
      <trkpt lat="47.94919" lon="-3.4848">
        <ele>124</ele>
        <time>2017-01-14T00:43:34Z</time>
      </trkpt>
      <trkpt lat="47.94975" lon="-3.48541">
        <ele>124</ele>
        <time>2017-01-14T00:45:34Z</time>
      </trkpt>
      <trkpt lat="47.95036" lon="-3.48605">
        <ele>124</ele>
        <time>2017-01-14T00:47:34Z</time>
      </trkpt>
      <trkpt lat="47.95153" lon="-3.48706">
        <ele>123</ele>
        <time>2017-01-14T00:49:34Z</time>
      </trkpt>
      <trkpt lat="47.95175" lon="-3.48731">
        <ele>123</ele>
        <time>2017-01-14T00:51:34Z</time>
      </trkpt>
      <trkpt lat="47.95183" lon="-3.48767">
        <ele>123</ele>
        <time>2017-01-14T00:53:34Z</time>
      </trkpt>
      <trkpt lat="47.95185" lon="-3.48786">
        <ele>124</ele>
        <time>2017-01-14T00:55:34Z</time>
      </trkpt>
      <trkpt lat="47.95202" lon="-3.48848">
        <ele>126</ele>
        <time>2017-01-14T00:57:34Z</time>
      </trkpt>
      <trkpt lat="47.95221" lon="-3.48892">
        <ele>128</ele>
        <time>2017-01-14T00:59:34Z</time>
      </trkpt>
      <trkpt lat="47.95271" lon="-3.4894">
        <ele>132</ele>
        <time>2017-01-14T01:01:34Z</time>
      </trkpt>
      <trkpt lat="47.95349" lon="-3.49">
        <ele>135</ele>
        <time>2017-01-14T01:03:34Z</time>
      </trkpt>
      <trkpt lat="47.95369" lon="-3.49028">
        <ele>135</ele>
        <time>2017-01-14T01:05:34Z</time>
      </trkpt>
      <trkpt lat="47.95389" lon="-3.49068">
        <ele>135</ele>
        <time>2017-01-14T01:07:34Z</time>
      </trkpt>
      <trkpt lat="47.95401" lon="-3.49102">
        <ele>134</ele>
        <time>2017-01-14T01:09:34Z</time>
      </trkpt>
      <trkpt lat="47.95408" lon="-3.49135">
        <ele>134</ele>
        <time>2017-01-14T01:11:34Z</time>
      </trkpt>
      <trkpt lat="47.95406" lon="-3.49165">
        <ele>134</ele>
        <time>2017-01-14T01:13:34Z</time>
      </trkpt>
      <trkpt lat="47.95399" lon="-3.49191">
        <ele>134</ele>
        <time>2017-01-14T01:15:34Z</time>
      </trkpt>
      <trkpt lat="47.95389" lon="-3.49216">
        <ele>134</ele>
        <time>2017-01-14T01:17:34Z</time>
      </trkpt>
      <trkpt lat="47.95371" lon="-3.49262">
        <ele>134</ele>
        <time>2017-01-14T01:19:34Z</time>
      </trkpt>
      <trkpt lat="47.95362" lon="-3.49314">
        <ele>135</ele>
        <time>2017-01-14T01:21:34Z</time>
      </trkpt>
      <trkpt lat="47.9537" lon="-3.49351">
        <ele>136</ele>
        <time>2017-01-14T01:23:34Z</time>
      </trkpt>
      <trkpt lat="47.95366" lon="-3.49389">
        <ele>137</ele>
        <time>2017-01-14T01:25:34Z</time>
      </trkpt>
      <trkpt lat="47.95364" lon="-3.49416">
        <ele>139</ele>
        <time>2017-01-14T01:27:34Z</time>
      </trkpt>
      <trkpt lat="47.95385" lon="-3.49454">
        <ele>139</ele>
        <time>2017-01-14T01:29:34Z</time>
      </trkpt>
      <trkpt lat="47.95398" lon="-3.49487">
        <ele>139</ele>
        <time>2017-01-14T01:31:34Z</time>
      </trkpt>
      <trkpt lat="47.95408" lon="-3.4953">
        <ele>138</ele>
        <time>2017-01-14T01:33:34Z</time>
      </trkpt>
      <trkpt lat="47.95411" lon="-3.49592">
        <ele>137</ele>
        <time>2017-01-14T01:35:34Z</time>
      </trkpt>
      <trkpt lat="47.95447" lon="-3.49597">
        <ele>137</ele>
        <time>2017-01-14T01:37:34Z</time>
      </trkpt>
      <trkpt lat="47.95466" lon="-3.49594">
        <ele>137</ele>
        <time>2017-01-14T01:39:34Z</time>
      </trkpt>
      <trkpt lat="47.95514" lon="-3.49586">
        <ele>137</ele>
        <time>2017-01-14T01:41:34Z</time>
      </trkpt>
      <trkpt lat="47.95584" lon="-3.49564">
        <ele>137</ele>
        <time>2017-01-14T01:43:34Z</time>
      </trkpt>
      <trkpt lat="47.95682" lon="-3.49591">
        <ele>134</ele>
        <time>2017-01-14T01:45:34Z</time>
      </trkpt>
      <trkpt lat="47.95798" lon="-3.49634">
        <ele>132</ele>
        <time>2017-01-14T01:47:34Z</time>
      </trkpt>
      <trkpt lat="47.95845" lon="-3.49647">
        <ele>131</ele>
        <time>2017-01-14T01:49:34Z</time>
      </trkpt>
      <trkpt lat="47.95928" lon="-3.49674">
        <ele>130</ele>
        <time>2017-01-14T01:51:34Z</time>
      </trkpt>
      <trkpt lat="47.95938" lon="-3.49676">
        <ele>130</ele>
        <time>2017-01-14T01:53:34Z</time>
      </trkpt>
      <trkpt lat="47.95948" lon="-3.49672">
        <ele>130</ele>
        <time>2017-01-14T01:55:34Z</time>
      </trkpt>
      <trkpt lat="47.96009" lon="-3.49711">
        <ele>124</ele>
        <time>2017-01-14T01:57:34Z</time>
      </trkpt>
      <trkpt lat="47.96052" lon="-3.49745">
        <ele>121</ele>
        <time>2017-01-14T01:59:34Z</time>
      </trkpt>
      <trkpt lat="47.96073" lon="-3.49762">
        <ele>120</ele>
        <time>2017-01-14T02:01:34Z</time>
      </trkpt>
      <trkpt lat="47.96101" lon="-3.49777">
        <ele>121</ele>
        <time>2017-01-14T02:03:34Z</time>
      </trkpt>
      <trkpt lat="47.96364" lon="-3.49831">
        <ele>133</ele>
        <time>2017-01-14T02:05:34Z</time>
      </trkpt>
      <trkpt lat="47.96374" lon="-3.49837">
        <ele>133</ele>
        <time>2017-01-14T02:07:34Z</time>
      </trkpt>
      <trkpt lat="47.96396" lon="-3.4986">
        <ele>133</ele>
        <time>2017-01-14T02:09:34Z</time>
      </trkpt>
      <trkpt lat="47.96419" lon="-3.49904">
        <ele>132</ele>
        <time>2017-01-14T02:11:34Z</time>
      </trkpt>
      <trkpt lat="47.96428" lon="-3.49918">
        <ele>132</ele>
        <time>2017-01-14T02:13:34Z</time>
      </trkpt>
      <trkpt lat="47.9645" lon="-3.49955">
        <ele>133</ele>
        <time>2017-01-14T02:15:34Z</time>
      </trkpt>
      <trkpt lat="47.96489" lon="-3.50025">
        <ele>135</ele>
        <time>2017-01-14T02:17:34Z</time>
      </trkpt>
      <trkpt lat="47.96485" lon="-3.50037">
        <ele>135</ele>
        <time>2017-01-14T02:19:34Z</time>
      </trkpt>
      <trkpt lat="47.96542" lon="-3.50166">
        <ele>138</ele>
        <time>2017-01-14T02:21:34Z</time>
      </trkpt>
      <trkpt lat="47.96563" lon="-3.50199">
        <ele>139</ele>
        <time>2017-01-14T02:23:34Z</time>
      </trkpt>
      <trkpt lat="47.96587" lon="-3.50235">
        <ele>140</ele>
        <time>2017-01-14T02:25:34Z</time>
      </trkpt>
      <trkpt lat="47.966" lon="-3.50233">
        <ele>141</ele>
        <time>2017-01-14T02:27:34Z</time>
      </trkpt>
      <trkpt lat="47.96611" lon="-3.50235">
        <ele>141</ele>
        <time>2017-01-14T02:29:34Z</time>
      </trkpt>
      <trkpt lat="47.9663" lon="-3.50253">
        <ele>141</ele>
        <time>2017-01-14T02:31:34Z</time>
      </trkpt>
      <trkpt lat="47.96656" lon="-3.50278">
        <ele>142</ele>
        <time>2017-01-14T02:33:34Z</time>
      </trkpt>
      <trkpt lat="47.96661" lon="-3.50293">
        <ele>142</ele>
        <time>2017-01-14T02:35:34Z</time>
      </trkpt>
      <trkpt lat="47.9667" lon="-3.5031">
        <ele>142</ele>
        <time>2017-01-14T02:37:34Z</time>
      </trkpt>
      <trkpt lat="47.96699" lon="-3.50327">
        <ele>142</ele>
        <time>2017-01-14T02:39:34Z</time>
      </trkpt>
      <trkpt lat="47.96747" lon="-3.50354">
        <ele>143</ele>
        <time>2017-01-14T02:41:34Z</time>
      </trkpt>
      <trkpt lat="47.9678" lon="-3.50366">
        <ele>141</ele>
        <time>2017-01-14T02:43:34Z</time>
      </trkpt>
      <trkpt lat="47.96783" lon="-3.50359">
        <ele>141</ele>
        <time>2017-01-14T02:45:34Z</time>
      </trkpt>
      <trkpt lat="47.96806" lon="-3.50352">
        <ele>138</ele>
        <time>2017-01-14T02:47:34Z</time>
      </trkpt>
      <trkpt lat="47.96822" lon="-3.50354">
        <ele>137</ele>
        <time>2017-01-14T02:49:34Z</time>
      </trkpt>
      <trkpt lat="47.96841" lon="-3.5037">
        <ele>137</ele>
        <time>2017-01-14T02:51:34Z</time>
      </trkpt>
      <trkpt lat="47.96861" lon="-3.50378">
        <ele>137</ele>
        <time>2017-01-14T02:53:34Z</time>
      </trkpt>
      <trkpt lat="47.96889" lon="-3.50373">
        <ele>135</ele>
        <time>2017-01-14T02:55:34Z</time>
      </trkpt>
      <trkpt lat="47.96918" lon="-3.50374">
        <ele>133</ele>
        <time>2017-01-14T02:57:34Z</time>
      </trkpt>
      <trkpt lat="47.96946" lon="-3.50373">
        <ele>131</ele>
        <time>2017-01-14T02:59:34Z</time>
      </trkpt>
      <trkpt lat="47.96941" lon="-3.50394">
        <ele>132</ele>
        <time>2017-01-14T03:01:34Z</time>
      </trkpt>
      <trkpt lat="47.96975" lon="-3.50461">
        <ele>134</ele>
        <time>2017-01-14T03:03:34Z</time>
      </trkpt>
      <trkpt lat="47.96999" lon="-3.50487">
        <ele>135</ele>
        <time>2017-01-14T03:05:34Z</time>
      </trkpt>
      <trkpt lat="47.97012" lon="-3.50454">
        <ele>130</ele>
        <time>2017-01-14T03:07:34Z</time>
      </trkpt>
      <trkpt lat="47.97029" lon="-3.50438">
        <ele>127</ele>
        <time>2017-01-14T03:09:34Z</time>
      </trkpt>
      <trkpt lat="47.97133" lon="-3.50388">
        <ele>112</ele>
        <time>2017-01-14T03:11:34Z</time>
      </trkpt>
      <trkpt lat="47.97163" lon="-3.50385">
        <ele>107</ele>
        <time>2017-01-14T03:13:34Z</time>
      </trkpt>
      <trkpt lat="47.97173" lon="-3.50395">
        <ele>106</ele>
        <time>2017-01-14T03:15:34Z</time>
      </trkpt>
      <trkpt lat="47.97231" lon="-3.50406">
        <ele>97</ele>
        <time>2017-01-14T03:17:34Z</time>
      </trkpt>
      <trkpt lat="47.97238" lon="-3.50414">
        <ele>96</ele>
        <time>2017-01-14T03:19:34Z</time>
      </trkpt>
      <trkpt lat="47.97264" lon="-3.50467">
        <ele>99</ele>
        <time>2017-01-14T03:21:34Z</time>
      </trkpt>
      <trkpt lat="47.97303" lon="-3.50491">
        <ele>98</ele>
        <time>2017-01-14T03:23:34Z</time>
      </trkpt>
      <trkpt lat="47.97336" lon="-3.50487">
        <ele>94</ele>
        <time>2017-01-14T03:25:34Z</time>
      </trkpt>
      <trkpt lat="47.97353" lon="-3.50495">
        <ele>96</ele>
        <time>2017-01-14T03:27:34Z</time>
      </trkpt>
      <trkpt lat="47.97392" lon="-3.50476">
        <ele>93</ele>
        <time>2017-01-14T03:29:34Z</time>
      </trkpt>
      <trkpt lat="47.97406" lon="-3.5046">
        <ele>89</ele>
        <time>2017-01-14T03:31:34Z</time>
      </trkpt>
      <trkpt lat="47.97423" lon="-3.50438">
        <ele>84</ele>
        <time>2017-01-14T03:33:34Z</time>
      </trkpt>
      <trkpt lat="47.97473" lon="-3.50405">
        <ele>71</ele>
        <time>2017-01-14T03:35:34Z</time>
      </trkpt>
      <trkpt lat="47.975" lon="-3.50395">
        <ele>66</ele>
        <time>2017-01-14T03:37:34Z</time>
      </trkpt>
      <trkpt lat="47.97518" lon="-3.50405">
        <ele>66</ele>
        <time>2017-01-14T03:39:34Z</time>
      </trkpt>
      <trkpt lat="47.97534" lon="-3.50423">
        <ele>67</ele>
        <time>2017-01-14T03:41:34Z</time>
      </trkpt>
      <trkpt lat="47.97538" lon="-3.50449">
        <ele>69</ele>
        <time>2017-01-14T03:43:34Z</time>
      </trkpt>
      <trkpt lat="47.97537" lon="-3.50506">
        <ele>75</ele>
        <time>2017-01-14T03:45:34Z</time>
      </trkpt>
      <trkpt lat="47.97539" lon="-3.50539">
        <ele>77</ele>
        <time>2017-01-14T03:47:34Z</time>
      </trkpt>
      <trkpt lat="47.97531" lon="-3.50592">
        <ele>83</ele>
        <time>2017-01-14T03:49:34Z</time>
      </trkpt>
      <trkpt lat="47.97521" lon="-3.50671">
        <ele>92</ele>
        <time>2017-01-14T03:51:34Z</time>
      </trkpt>
      <trkpt lat="47.97533" lon="-3.50762">
        <ele>92</ele>
        <time>2017-01-14T03:53:34Z</time>
      </trkpt>
      <trkpt lat="47.9753" lon="-3.50798">
        <ele>89</ele>
        <time>2017-01-14T03:55:34Z</time>
      </trkpt>
      <trkpt lat="47.97524" lon="-3.50816">
        <ele>89</ele>
        <time>2017-01-14T03:57:34Z</time>
      </trkpt>
      <trkpt lat="47.97509" lon="-3.50819">
        <ele>91</ele>
        <time>2017-01-14T03:59:34Z</time>
      </trkpt>
      <trkpt lat="47.97505" lon="-3.5081">
        <ele>93</ele>
        <time>2017-01-14T04:01:34Z</time>
      </trkpt>
      <trkpt lat="47.97498" lon="-3.50802">
        <ele>95</ele>
        <time>2017-01-14T04:03:34Z</time>
      </trkpt>
      <trkpt lat="47.97491" lon="-3.50801">
        <ele>96</ele>
        <time>2017-01-14T04:05:34Z</time>
      </trkpt>
      <trkpt lat="47.97484" lon="-3.50804">
        <ele>97</ele>
        <time>2017-01-14T04:07:34Z</time>
      </trkpt>
      <trkpt lat="47.97468" lon="-3.50817">
        <ele>99</ele>
        <time>2017-01-14T04:09:34Z</time>
      </trkpt>
      <trkpt lat="47.97469" lon="-3.50845">
        <ele>96</ele>
        <time>2017-01-14T04:11:34Z</time>
      </trkpt>
      <trkpt lat="47.97467" lon="-3.50871">
        <ele>94</ele>
        <time>2017-01-14T04:13:34Z</time>
      </trkpt>
      <trkpt lat="47.97463" lon="-3.50886">
        <ele>93</ele>
        <time>2017-01-14T04:15:34Z</time>
      </trkpt>
      <trkpt lat="47.97446" lon="-3.50929">
        <ele>91</ele>
        <time>2017-01-14T04:17:34Z</time>
      </trkpt>
      <trkpt lat="47.97425" lon="-3.50993">
        <ele>90</ele>
        <time>2017-01-14T04:19:34Z</time>
      </trkpt>
      <trkpt lat="47.97426" lon="-3.5106">
        <ele>88</ele>
        <time>2017-01-14T04:21:34Z</time>
      </trkpt>
      <trkpt lat="47.97432" lon="-3.51098">
        <ele>85</ele>
        <time>2017-01-14T04:23:34Z</time>
      </trkpt>
      <trkpt lat="47.97435" lon="-3.5112">
        <ele>84</ele>
        <time>2017-01-14T04:25:34Z</time>
      </trkpt>
      <trkpt lat="47.97433" lon="-3.51136">
        <ele>84</ele>
        <time>2017-01-14T04:27:34Z</time>
      </trkpt>
      <trkpt lat="47.97424" lon="-3.51184">
        <ele>84</ele>
        <time>2017-01-14T04:29:34Z</time>
      </trkpt>
      <trkpt lat="47.97428" lon="-3.51214">
        <ele>84</ele>
        <time>2017-01-14T04:31:34Z</time>
      </trkpt>
      <trkpt lat="47.97429" lon="-3.51233">
        <ele>84</ele>
        <time>2017-01-14T04:33:34Z</time>
      </trkpt>
      <trkpt lat="47.97435" lon="-3.51261">
        <ele>83</ele>
        <time>2017-01-14T04:35:34Z</time>
      </trkpt>
      <trkpt lat="47.97452" lon="-3.51287">
        <ele>80</ele>
        <time>2017-01-14T04:37:34Z</time>
      </trkpt>
      <trkpt lat="47.97461" lon="-3.51337">
        <ele>78</ele>
        <time>2017-01-14T04:39:34Z</time>
      </trkpt>
      <trkpt lat="47.97471" lon="-3.51388">
        <ele>76</ele>
        <time>2017-01-14T04:41:34Z</time>
      </trkpt>
      <trkpt lat="47.97474" lon="-3.51446">
        <ele>75</ele>
        <time>2017-01-14T04:43:34Z</time>
      </trkpt>
      <trkpt lat="47.97467" lon="-3.51462">
        <ele>76</ele>
        <time>2017-01-14T04:45:34Z</time>
      </trkpt>
      <trkpt lat="47.97462" lon="-3.51498">
        <ele>75</ele>
        <time>2017-01-14T04:47:34Z</time>
      </trkpt>
      <trkpt lat="47.97446" lon="-3.51518">
        <ele>77</ele>
        <time>2017-01-14T04:49:34Z</time>
      </trkpt>
      <trkpt lat="47.97445" lon="-3.51528">
        <ele>77</ele>
        <time>2017-01-14T04:51:34Z</time>
      </trkpt>
      <trkpt lat="47.97456" lon="-3.51537">
        <ele>76</ele>
        <time>2017-01-14T04:53:34Z</time>
      </trkpt>
      <trkpt lat="47.97471" lon="-3.51538">
        <ele>74</ele>
        <time>2017-01-14T04:55:34Z</time>
      </trkpt>
      <trkpt lat="47.97478" lon="-3.51568">
        <ele>74</ele>
        <time>2017-01-14T04:57:34Z</time>
      </trkpt>
      <trkpt lat="47.97488" lon="-3.51579">
        <ele>73</ele>
        <time>2017-01-14T04:59:34Z</time>
      </trkpt>
      <trkpt lat="47.9754" lon="-3.51698">
        <ele>75</ele>
        <time>2017-01-14T05:01:34Z</time>
      </trkpt>
      <trkpt lat="47.97553" lon="-3.51714">
        <ele>74</ele>
        <time>2017-01-14T05:03:34Z</time>
      </trkpt>
      <trkpt lat="47.97552" lon="-3.51745">
        <ele>75</ele>
        <time>2017-01-14T05:05:34Z</time>
      </trkpt>
      <trkpt lat="47.97603" lon="-3.51885">
        <ele>80</ele>
        <time>2017-01-14T05:07:34Z</time>
      </trkpt>
      <trkpt lat="47.97632" lon="-3.5199">
        <ele>82</ele>
        <time>2017-01-14T05:09:34Z</time>
      </trkpt>
      <trkpt lat="47.9768" lon="-3.52129">
        <ele>83</ele>
        <time>2017-01-14T05:11:34Z</time>
      </trkpt>
      <trkpt lat="47.97691" lon="-3.52141">
        <ele>84</ele>
        <time>2017-01-14T05:13:34Z</time>
      </trkpt>
      <trkpt lat="47.97691" lon="-3.52152">
        <ele>85</ele>
        <time>2017-01-14T05:15:34Z</time>
      </trkpt>
      <trkpt lat="47.9768" lon="-3.52157">
        <ele>86</ele>
        <time>2017-01-14T05:17:34Z</time>
      </trkpt>
      <trkpt lat="47.97676" lon="-3.5217">
        <ele>88</ele>
        <time>2017-01-14T05:19:34Z</time>
      </trkpt>
      <trkpt lat="47.97665" lon="-3.5218">
        <ele>91</ele>
        <time>2017-01-14T05:21:34Z</time>
      </trkpt>
      <trkpt lat="47.9766" lon="-3.52202">
        <ele>95</ele>
        <time>2017-01-14T05:23:34Z</time>
      </trkpt>
      <trkpt lat="47.97669" lon="-3.52218">
        <ele>98</ele>
        <time>2017-01-14T05:25:34Z</time>
      </trkpt>
      <trkpt lat="47.97686" lon="-3.52243">
        <ele>100</ele>
        <time>2017-01-14T05:27:34Z</time>
      </trkpt>
      <trkpt lat="47.97699" lon="-3.52255">
        <ele>100</ele>
        <time>2017-01-14T05:29:34Z</time>
      </trkpt>
      <trkpt lat="47.97726" lon="-3.52296">
        <ele>101</ele>
        <time>2017-01-14T05:31:34Z</time>
      </trkpt>
      <trkpt lat="47.97755" lon="-3.52357">
        <ele>103</ele>
        <time>2017-01-14T05:33:34Z</time>
      </trkpt>
      <trkpt lat="47.97779" lon="-3.52384">
        <ele>101</ele>
        <time>2017-01-14T05:35:34Z</time>
      </trkpt>
      <trkpt lat="47.9781" lon="-3.52428">
        <ele>100</ele>
        <time>2017-01-14T05:37:34Z</time>
      </trkpt>
      <trkpt lat="47.97854" lon="-3.52503">
        <ele>97</ele>
        <time>2017-01-14T05:39:34Z</time>
      </trkpt>
      <trkpt lat="47.97908" lon="-3.52585">
        <ele>96</ele>
        <time>2017-01-14T05:41:34Z</time>
      </trkpt>
      <trkpt lat="47.97923" lon="-3.52621">
        <ele>99</ele>
        <time>2017-01-14T05:43:34Z</time>
      </trkpt>
      <trkpt lat="47.97937" lon="-3.52632">
        <ele>99</ele>
        <time>2017-01-14T05:45:34Z</time>
      </trkpt>
      <trkpt lat="47.97946" lon="-3.52648">
        <ele>100</ele>
        <time>2017-01-14T05:47:34Z</time>
      </trkpt>
      <trkpt lat="47.97955" lon="-3.52671">
        <ele>102</ele>
        <time>2017-01-14T05:49:34Z</time>
      </trkpt>
      <trkpt lat="47.97962" lon="-3.52698">
        <ele>102</ele>
        <time>2017-01-14T05:51:34Z</time>
      </trkpt>
      <trkpt lat="47.97959" lon="-3.52726">
        <ele>105</ele>
        <time>2017-01-14T05:53:34Z</time>
      </trkpt>
      <trkpt lat="47.97964" lon="-3.52773">
        <ele>105</ele>
        <time>2017-01-14T05:55:34Z</time>
      </trkpt>
      <trkpt lat="47.9795" lon="-3.52853">
        <ele>109</ele>
        <time>2017-01-14T05:57:34Z</time>
      </trkpt>
      <trkpt lat="47.97941" lon="-3.52863">
        <ele>111</ele>
        <time>2017-01-14T05:59:34Z</time>
      </trkpt>
      <trkpt lat="47.97926" lon="-3.52865">
        <ele>115</ele>
        <time>2017-01-14T06:01:34Z</time>
      </trkpt>
      <trkpt lat="47.97869" lon="-3.52842">
        <ele>124</ele>
        <time>2017-01-14T06:03:34Z</time>
      </trkpt>
      <trkpt lat="47.97858" lon="-3.52839">
        <ele>125</ele>
        <time>2017-01-14T06:05:34Z</time>
      </trkpt>
      <trkpt lat="47.97825" lon="-3.52859">
        <ele>129</ele>
        <time>2017-01-14T06:07:34Z</time>
      </trkpt>
      <trkpt lat="47.97857" lon="-3.52874">
        <ele>125</ele>
        <time>2017-01-14T06:09:34Z</time>
      </trkpt>
      <trkpt lat="47.97883" lon="-3.52887">
        <ele>121</ele>
        <time>2017-01-14T06:11:34Z</time>
      </trkpt>
      <trkpt lat="47.97925" lon="-3.52935">
        <ele>115</ele>
        <time>2017-01-14T06:13:34Z</time>
      </trkpt>
      <trkpt lat="47.97937" lon="-3.52952">
        <ele>111</ele>
        <time>2017-01-14T06:15:34Z</time>
      </trkpt>
      <trkpt lat="47.97932" lon="-3.5302">
        <ele>111</ele>
        <time>2017-01-14T06:17:34Z</time>
      </trkpt>
      <trkpt lat="47.97926" lon="-3.5308">
        <ele>111</ele>
        <time>2017-01-14T06:19:34Z</time>
      </trkpt>
      <trkpt lat="47.97903" lon="-3.53136">
        <ele>111</ele>
        <time>2017-01-14T06:21:34Z</time>
      </trkpt>
      <trkpt lat="47.97871" lon="-3.53194">
        <ele>113</ele>
        <time>2017-01-14T06:23:34Z</time>
      </trkpt>
      <trkpt lat="47.97846" lon="-3.53253">
        <ele>109</ele>
        <time>2017-01-14T06:25:34Z</time>
      </trkpt>
      <trkpt lat="47.97823" lon="-3.53274">
        <ele>109</ele>
        <time>2017-01-14T06:27:34Z</time>
      </trkpt>
      <trkpt lat="47.9776" lon="-3.53271">
        <ele>111</ele>
        <time>2017-01-14T06:29:34Z</time>
      </trkpt>
      <trkpt lat="47.97747" lon="-3.53298">
        <ele>108</ele>
        <time>2017-01-14T06:31:34Z</time>
      </trkpt>
      <trkpt lat="47.97749" lon="-3.53335">
        <ele>104</ele>
        <time>2017-01-14T06:33:34Z</time>
      </trkpt>
      <trkpt lat="47.97756" lon="-3.53345">
        <ele>106</ele>
        <time>2017-01-14T06:35:34Z</time>
      </trkpt>
      <trkpt lat="47.97776" lon="-3.53382">
        <ele>110</ele>
        <time>2017-01-14T06:37:34Z</time>
      </trkpt>
      <trkpt lat="47.97779" lon="-3.53424">
        <ele>116</ele>
        <time>2017-01-14T06:39:34Z</time>
      </trkpt>
      <trkpt lat="47.97767" lon="-3.53496">
        <ele>122</ele>
        <time>2017-01-14T06:41:34Z</time>
      </trkpt>
      <trkpt lat="47.97737" lon="-3.5355">
        <ele>124</ele>
        <time>2017-01-14T06:43:34Z</time>
      </trkpt>
      <trkpt lat="47.97746" lon="-3.53561">
        <ele>125</ele>
        <time>2017-01-14T06:45:34Z</time>
      </trkpt>
      <trkpt lat="47.97743" lon="-3.53597">
        <ele>126</ele>
        <time>2017-01-14T06:47:34Z</time>
      </trkpt>
      <trkpt lat="47.97727" lon="-3.53654">
        <ele>128</ele>
        <time>2017-01-14T06:49:34Z</time>
      </trkpt>
      <trkpt lat="47.9772" lon="-3.53694">
        <ele>130</ele>
        <time>2017-01-14T06:51:34Z</time>
      </trkpt>
      <trkpt lat="47.97694" lon="-3.53748">
        <ele>133</ele>
        <time>2017-01-14T06:53:34Z</time>
      </trkpt>
      <trkpt lat="47.97689" lon="-3.53774">
        <ele>134</ele>
        <time>2017-01-14T06:55:34Z</time>
      </trkpt>
      <trkpt lat="47.97686" lon="-3.5379">
        <ele>134</ele>
        <time>2017-01-14T06:57:34Z</time>
      </trkpt>
      <trkpt lat="47.97668" lon="-3.53815">
        <ele>135</ele>
        <time>2017-01-14T06:59:34Z</time>
      </trkpt>
      <trkpt lat="47.9759" lon="-3.53953">
        <ele>141</ele>
        <time>2017-01-14T07:01:34Z</time>
      </trkpt>
      <trkpt lat="47.97584" lon="-3.53991">
        <ele>145</ele>
        <time>2017-01-14T07:03:34Z</time>
      </trkpt>
      <trkpt lat="47.97569" lon="-3.53984">
        <ele>145</ele>
        <time>2017-01-14T07:05:34Z</time>
      </trkpt>
      <trkpt lat="47.97559" lon="-3.53984">
        <ele>145</ele>
        <time>2017-01-14T07:07:34Z</time>
      </trkpt>
      <trkpt lat="47.9754" lon="-3.53985">
        <ele>146</ele>
        <time>2017-01-14T07:09:34Z</time>
      </trkpt>
      <trkpt lat="47.97532" lon="-3.53986">
        <ele>146</ele>
        <time>2017-01-14T07:11:34Z</time>
      </trkpt>
      <trkpt lat="47.97527" lon="-3.54023">
        <ele>147</ele>
        <time>2017-01-14T07:13:34Z</time>
      </trkpt>
      <trkpt lat="47.97484" lon="-3.54266">
        <ele>147</ele>
        <time>2017-01-14T07:15:34Z</time>
      </trkpt>
      <trkpt lat="47.97454" lon="-3.54277">
        <ele>146</ele>
        <time>2017-01-14T07:17:34Z</time>
      </trkpt>
      <trkpt lat="47.97408" lon="-3.54316">
        <ele>146</ele>
        <time>2017-01-14T07:19:34Z</time>
      </trkpt>
      <trkpt lat="47.97381" lon="-3.54359">
        <ele>147</ele>
        <time>2017-01-14T07:21:34Z</time>
      </trkpt>
      <trkpt lat="47.97357" lon="-3.54373">
        <ele>148</ele>
        <time>2017-01-14T07:23:34Z</time>
      </trkpt>
      <trkpt lat="47.97301" lon="-3.54396">
        <ele>152</ele>
        <time>2017-01-14T07:25:34Z</time>
      </trkpt>
      <trkpt lat="47.9726" lon="-3.54408">
        <ele>155</ele>
        <time>2017-01-14T07:27:34Z</time>
      </trkpt>
      <trkpt lat="47.97214" lon="-3.54423">
        <ele>157</ele>
        <time>2017-01-14T07:29:34Z</time>
      </trkpt>
      <trkpt lat="47.9716" lon="-3.54425">
        <ele>158</ele>
        <time>2017-01-14T07:31:34Z</time>
      </trkpt>
      <trkpt lat="47.97111" lon="-3.54421">
        <ele>160</ele>
        <time>2017-01-14T07:33:34Z</time>
      </trkpt>
      <trkpt lat="47.97072" lon="-3.54434">
        <ele>159</ele>
        <time>2017-01-14T07:35:34Z</time>
      </trkpt>
      <trkpt lat="47.97033" lon="-3.5445">
        <ele>157</ele>
        <time>2017-01-14T07:37:34Z</time>
      </trkpt>
      <trkpt lat="47.96987" lon="-3.54449">
        <ele>157</ele>
        <time>2017-01-14T07:39:34Z</time>
      </trkpt>
      <trkpt lat="47.96957" lon="-3.54458">
        <ele>158</ele>
        <time>2017-01-14T07:41:34Z</time>
      </trkpt>
      <trkpt lat="47.96934" lon="-3.54502">
        <ele>156</ele>
        <time>2017-01-14T07:43:34Z</time>
      </trkpt>
      <trkpt lat="47.9692" lon="-3.54528">
        <ele>156</ele>
        <time>2017-01-14T07:45:34Z</time>
      </trkpt>
      <trkpt lat="47.96885" lon="-3.54558">
        <ele>154</ele>
        <time>2017-01-14T07:47:34Z</time>
      </trkpt>
      <trkpt lat="47.96742" lon="-3.5472">
        <ele>160</ele>
        <time>2017-01-14T07:49:34Z</time>
      </trkpt>
      <trkpt lat="47.96727" lon="-3.54743">
        <ele>160</ele>
        <time>2017-01-14T07:51:34Z</time>
      </trkpt>
      <trkpt lat="47.96723" lon="-3.54788">
        <ele>160</ele>
        <time>2017-01-14T07:53:34Z</time>
      </trkpt>
      <trkpt lat="47.96715" lon="-3.54819">
        <ele>159</ele>
        <time>2017-01-14T07:55:34Z</time>
      </trkpt>
      <trkpt lat="47.96693" lon="-3.54863">
        <ele>158</ele>
        <time>2017-01-14T07:57:34Z</time>
      </trkpt>
      <trkpt lat="47.96639" lon="-3.55011">
        <ele>156</ele>
        <time>2017-01-14T07:59:34Z</time>
      </trkpt>
      <trkpt lat="47.96521" lon="-3.55156">
        <ele>159</ele>
        <time>2017-01-14T08:01:34Z</time>
      </trkpt>
      <trkpt lat="47.96508" lon="-3.55011">
        <ele>157</ele>
        <time>2017-01-14T08:03:34Z</time>
      </trkpt>
      <trkpt lat="47.96503" lon="-3.55004">
        <ele>157</ele>
        <time>2017-01-14T08:05:34Z</time>
      </trkpt>
      <trkpt lat="47.96453" lon="-3.55034">
        <ele>157</ele>
        <time>2017-01-14T08:07:34Z</time>
      </trkpt>
      <trkpt lat="47.96408" lon="-3.55065">
        <ele>158</ele>
        <time>2017-01-14T08:09:34Z</time>
      </trkpt>
      <trkpt lat="47.96324" lon="-3.55171">
        <ele>160</ele>
        <time>2017-01-14T08:11:34Z</time>
      </trkpt>
      <trkpt lat="47.96266" lon="-3.55191">
        <ele>157</ele>
        <time>2017-01-14T08:13:34Z</time>
      </trkpt>
      <trkpt lat="47.96267" lon="-3.55219">
        <ele>157</ele>
        <time>2017-01-14T08:15:34Z</time>
      </trkpt>
      <trkpt lat="47.96231" lon="-3.55253">
        <ele>154</ele>
        <time>2017-01-14T08:17:34Z</time>
      </trkpt>
      <trkpt lat="47.96157" lon="-3.55325">
        <ele>152</ele>
        <time>2017-01-14T08:19:34Z</time>
      </trkpt>
      <trkpt lat="47.95956" lon="-3.55457">
        <ele>147</ele>
        <time>2017-01-14T08:21:34Z</time>
      </trkpt>
      <trkpt lat="47.9594" lon="-3.55463">
        <ele>147</ele>
        <time>2017-01-14T08:23:34Z</time>
      </trkpt>
      <trkpt lat="47.95852" lon="-3.55468">
        <ele>147</ele>
        <time>2017-01-14T08:25:34Z</time>
      </trkpt>
      <trkpt lat="47.95825" lon="-3.55474">
        <ele>148</ele>
        <time>2017-01-14T08:27:34Z</time>
      </trkpt>
      <trkpt lat="47.95728" lon="-3.55374">
        <ele>144</ele>
        <time>2017-01-14T08:29:34Z</time>
      </trkpt>
      <trkpt lat="47.95688" lon="-3.5534">
        <ele>143</ele>
        <time>2017-01-14T08:31:34Z</time>
      </trkpt>
      <trkpt lat="47.95636" lon="-3.55314">
        <ele>142</ele>
        <time>2017-01-14T08:33:34Z</time>
      </trkpt>
      <trkpt lat="47.95452" lon="-3.55231">
        <ele>128</ele>
        <time>2017-01-14T08:35:34Z</time>
      </trkpt>
      <trkpt lat="47.95436" lon="-3.55235">
        <ele>127</ele>
        <time>2017-01-14T08:37:34Z</time>
      </trkpt>
      <trkpt lat="47.95416" lon="-3.5527">
        <ele>127</ele>
        <time>2017-01-14T08:39:34Z</time>
      </trkpt>
      <trkpt lat="47.95402" lon="-3.55346">
        <ele>128</ele>
        <time>2017-01-14T08:41:34Z</time>
      </trkpt>
      <trkpt lat="47.95392" lon="-3.55363">
        <ele>128</ele>
        <time>2017-01-14T08:43:34Z</time>
      </trkpt>
      <trkpt lat="47.95363" lon="-3.5537">
        <ele>128</ele>
        <time>2017-01-14T08:45:34Z</time>
      </trkpt>
      <trkpt lat="47.95297" lon="-3.55176">
        <ele>123</ele>
        <time>2017-01-14T08:47:34Z</time>
      </trkpt>
      <trkpt lat="47.9528" lon="-3.55183">
        <ele>124</ele>
        <time>2017-01-14T08:49:34Z</time>
      </trkpt>
      <trkpt lat="47.9528" lon="-3.55171">
        <ele>123</ele>
        <time>2017-01-14T08:51:34Z</time>
      </trkpt>
      <trkpt lat="47.95263" lon="-3.55181">
        <ele>124</ele>
        <time>2017-01-14T08:53:34Z</time>
      </trkpt>
      <trkpt lat="47.95243" lon="-3.55161">
        <ele>123</ele>
        <time>2017-01-14T08:55:34Z</time>
      </trkpt>
      <trkpt lat="47.95229" lon="-3.55161">
        <ele>123</ele>
        <time>2017-01-14T08:57:34Z</time>
      </trkpt>
      <trkpt lat="47.9518" lon="-3.5519">
        <ele>123</ele>
        <time>2017-01-14T08:59:34Z</time>
      </trkpt>
      <trkpt lat="47.9515" lon="-3.5522">
        <ele>120</ele>
        <time>2017-01-14T09:01:34Z</time>
      </trkpt>
      <trkpt lat="47.95139" lon="-3.55223">
        <ele>119</ele>
        <time>2017-01-14T09:03:34Z</time>
      </trkpt>
      <trkpt lat="47.95067" lon="-3.55217">
        <ele>114</ele>
        <time>2017-01-14T09:05:34Z</time>
      </trkpt>
      <trkpt lat="47.95022" lon="-3.55232">
        <ele>109</ele>
        <time>2017-01-14T09:07:34Z</time>
      </trkpt>
      <trkpt lat="47.95006" lon="-3.55241">
        <ele>107</ele>
        <time>2017-01-14T09:09:34Z</time>
      </trkpt>
      <trkpt lat="47.94972" lon="-3.55235">
        <ele>104</ele>
        <time>2017-01-14T09:11:34Z</time>
      </trkpt>
      <trkpt lat="47.94925" lon="-3.55215">
        <ele>99</ele>
        <time>2017-01-14T09:13:34Z</time>
      </trkpt>
      <trkpt lat="47.94909" lon="-3.55197">
        <ele>98</ele>
        <time>2017-01-14T09:15:34Z</time>
      </trkpt>
      <trkpt lat="47.94879" lon="-3.55127">
        <ele>96</ele>
        <time>2017-01-14T09:17:34Z</time>
      </trkpt>
      <trkpt lat="47.94871" lon="-3.55082">
        <ele>96</ele>
        <time>2017-01-14T09:19:34Z</time>
      </trkpt>
      <trkpt lat="47.94869" lon="-3.54987">
        <ele>97</ele>
        <time>2017-01-14T09:21:34Z</time>
      </trkpt>
      <trkpt lat="47.9486" lon="-3.54904">
        <ele>100</ele>
        <time>2017-01-14T09:23:34Z</time>
      </trkpt>
      <trkpt lat="47.94853" lon="-3.54838">
        <ele>102</ele>
        <time>2017-01-14T09:25:34Z</time>
      </trkpt>
      <trkpt lat="47.94843" lon="-3.54779">
        <ele>101</ele>
        <time>2017-01-14T09:27:34Z</time>
      </trkpt>
      <trkpt lat="47.94834" lon="-3.54701">
        <ele>100</ele>
        <time>2017-01-14T09:29:34Z</time>
      </trkpt>
      <trkpt lat="47.94862" lon="-3.54694">
        <ele>103</ele>
        <time>2017-01-14T09:31:34Z</time>
      </trkpt>
      <trkpt lat="47.94922" lon="-3.547">
        <ele>109</ele>
        <time>2017-01-14T09:33:34Z</time>
      </trkpt>
      <trkpt lat="47.94967" lon="-3.54721">
        <ele>114</ele>
        <time>2017-01-14T09:35:34Z</time>
      </trkpt>
      <trkpt lat="47.94997" lon="-3.54728">
        <ele>118</ele>
        <time>2017-01-14T09:37:34Z</time>
      </trkpt>
      <trkpt lat="47.95016" lon="-3.54723">
        <ele>119</ele>
        <time>2017-01-14T09:39:34Z</time>
      </trkpt>
      <trkpt lat="47.95076" lon="-3.54723">
        <ele>123</ele>
        <time>2017-01-14T09:41:34Z</time>
      </trkpt>
      <trkpt lat="47.95129" lon="-3.54719">
        <ele>127</ele>
        <time>2017-01-14T09:43:34Z</time>
      </trkpt>
      <trkpt lat="47.95138" lon="-3.54711">
        <ele>127</ele>
        <time>2017-01-14T09:45:34Z</time>
      </trkpt>
      <trkpt lat="47.9519" lon="-3.54721">
        <ele>131</ele>
        <time>2017-01-14T09:47:34Z</time>
      </trkpt>
      <trkpt lat="47.95224" lon="-3.54677">
        <ele>131</ele>
        <time>2017-01-14T09:49:34Z</time>
      </trkpt>
      <trkpt lat="47.95235" lon="-3.54635">
        <ele>131</ele>
        <time>2017-01-14T09:51:34Z</time>
      </trkpt>
      <trkpt lat="47.95237" lon="-3.54559">
        <ele>131</ele>
        <time>2017-01-14T09:53:34Z</time>
      </trkpt>
      <trkpt lat="47.95261" lon="-3.54464">
        <ele>129</ele>
        <time>2017-01-14T09:55:34Z</time>
      </trkpt>
      <trkpt lat="47.95261" lon="-3.54423">
        <ele>129</ele>
        <time>2017-01-14T09:57:34Z</time>
      </trkpt>
      <trkpt lat="47.95258" lon="-3.54397">
        <ele>129</ele>
        <time>2017-01-14T09:59:34Z</time>
      </trkpt>
      <trkpt lat="47.95251" lon="-3.54379">
        <ele>128</ele>
        <time>2017-01-14T10:01:34Z</time>
      </trkpt>
      <trkpt lat="47.95223" lon="-3.5437">
        <ele>127</ele>
        <time>2017-01-14T10:03:34Z</time>
      </trkpt>
      <trkpt lat="47.95201" lon="-3.54349">
        <ele>126</ele>
        <time>2017-01-14T10:05:34Z</time>
      </trkpt>
      <trkpt lat="47.95127" lon="-3.54317">
        <ele>126</ele>
        <time>2017-01-14T10:07:34Z</time>
      </trkpt>
      <trkpt lat="47.951" lon="-3.54307">
        <ele>128</ele>
        <time>2017-01-14T10:09:34Z</time>
      </trkpt>
      <trkpt lat="47.95085" lon="-3.54228">
        <ele>136</ele>
        <time>2017-01-14T10:11:34Z</time>
      </trkpt>
      <trkpt lat="47.95083" lon="-3.54196">
        <ele>138</ele>
        <time>2017-01-14T10:13:34Z</time>
      </trkpt>
      <trkpt lat="47.95088" lon="-3.54175">
        <ele>139</ele>
        <time>2017-01-14T10:15:34Z</time>
      </trkpt>
      <trkpt lat="47.95094" lon="-3.54136">
        <ele>138</ele>
        <time>2017-01-14T10:17:34Z</time>
      </trkpt>
      <trkpt lat="47.95117" lon="-3.54133">
        <ele>137</ele>
        <time>2017-01-14T10:19:34Z</time>
      </trkpt>
      <trkpt lat="47.95156" lon="-3.54126">
        <ele>134</ele>
        <time>2017-01-14T10:21:34Z</time>
      </trkpt>
      <trkpt lat="47.95184" lon="-3.54114">
        <ele>132</ele>
        <time>2017-01-14T10:23:34Z</time>
      </trkpt>
      <trkpt lat="47.95198" lon="-3.54106">
        <ele>131</ele>
        <time>2017-01-14T10:25:34Z</time>
      </trkpt>
      <trkpt lat="47.95216" lon="-3.54072">
        <ele>130</ele>
        <time>2017-01-14T10:27:34Z</time>
      </trkpt>
      <trkpt lat="47.95227" lon="-3.54036">
        <ele>132</ele>
        <time>2017-01-14T10:29:34Z</time>
      </trkpt>
      <trkpt lat="47.95234" lon="-3.54003">
        <ele>134</ele>
        <time>2017-01-14T10:31:34Z</time>
      </trkpt>
      <trkpt lat="47.95234" lon="-3.53933">
        <ele>135</ele>
        <time>2017-01-14T10:33:34Z</time>
      </trkpt>
      <trkpt lat="47.95227" lon="-3.53884">
        <ele>135</ele>
        <time>2017-01-14T10:35:34Z</time>
      </trkpt>
      <trkpt lat="47.95218" lon="-3.53847">
        <ele>133</ele>
        <time>2017-01-14T10:37:34Z</time>
      </trkpt>
      <trkpt lat="47.95212" lon="-3.53823">
        <ele>132</ele>
        <time>2017-01-14T10:39:34Z</time>
      </trkpt>
      <trkpt lat="47.95247" lon="-3.53803">
        <ele>134</ele>
        <time>2017-01-14T10:41:34Z</time>
      </trkpt>
      <trkpt lat="47.95264" lon="-3.5379">
        <ele>134</ele>
        <time>2017-01-14T10:43:34Z</time>
      </trkpt>
      <trkpt lat="47.95258" lon="-3.53766">
        <ele>133</ele>
        <time>2017-01-14T10:45:34Z</time>
      </trkpt>
      <trkpt lat="47.95259" lon="-3.53731">
        <ele>133</ele>
        <time>2017-01-14T10:47:34Z</time>
      </trkpt>
      <trkpt lat="47.95258" lon="-3.53708">
        <ele>133</ele>
        <time>2017-01-14T10:49:34Z</time>
      </trkpt>
      <trkpt lat="47.95265" lon="-3.53665">
        <ele>134</ele>
        <time>2017-01-14T10:51:34Z</time>
      </trkpt>
      <trkpt lat="47.95268" lon="-3.53585">
        <ele>135</ele>
        <time>2017-01-14T10:53:34Z</time>
      </trkpt>
      <trkpt lat="47.95298" lon="-3.53554">
        <ele>139</ele>
        <time>2017-01-14T10:55:34Z</time>
      </trkpt>
      <trkpt lat="47.95362" lon="-3.53548">
        <ele>144</ele>
        <time>2017-01-14T10:57:34Z</time>
      </trkpt>
      <trkpt lat="47.95363" lon="-3.53559">
        <ele>144</ele>
        <time>2017-01-14T10:59:34Z</time>
      </trkpt>
      <trkpt lat="47.95477" lon="-3.53567">
        <ele>148</ele>
        <time>2017-01-14T11:01:34Z</time>
      </trkpt>
      <trkpt lat="47.95489" lon="-3.53529">
        <ele>150</ele>
        <time>2017-01-14T11:03:34Z</time>
      </trkpt>
      <trkpt lat="47.95539" lon="-3.53518">
        <ele>152</ele>
        <time>2017-01-14T11:05:34Z</time>
      </trkpt>
      <trkpt lat="47.95562" lon="-3.53468">
        <ele>153</ele>
        <time>2017-01-14T11:07:34Z</time>
      </trkpt>
      <trkpt lat="47.95646" lon="-3.53489">
        <ele>152</ele>
        <time>2017-01-14T11:09:34Z</time>
      </trkpt>
      <trkpt lat="47.9574" lon="-3.53578">
        <ele>151</ele>
        <time>2017-01-14T11:11:34Z</time>
      </trkpt>
      <trkpt lat="47.95792" lon="-3.53632">
        <ele>152</ele>
        <time>2017-01-14T11:13:34Z</time>
      </trkpt>
      <trkpt lat="47.95813" lon="-3.5367">
        <ele>153</ele>
        <time>2017-01-14T11:15:34Z</time>
      </trkpt>
      <trkpt lat="47.95887" lon="-3.53751">
        <ele>153</ele>
        <time>2017-01-14T11:17:34Z</time>
      </trkpt>
      <trkpt lat="47.95925" lon="-3.53705">
        <ele>155</ele>
        <time>2017-01-14T11:19:34Z</time>
      </trkpt>
      <trkpt lat="47.95957" lon="-3.53625">
        <ele>155</ele>
        <time>2017-01-14T11:21:34Z</time>
      </trkpt>
      <trkpt lat="47.96014" lon="-3.53673">
        <ele>156</ele>
        <time>2017-01-14T11:23:34Z</time>
      </trkpt>
      <trkpt lat="47.96028" lon="-3.53639">
        <ele>157</ele>
        <time>2017-01-14T11:25:34Z</time>
      </trkpt>
      <trkpt lat="47.96068" lon="-3.53575">
        <ele>159</ele>
        <time>2017-01-14T11:27:34Z</time>
      </trkpt>
      <trkpt lat="47.96075" lon="-3.5357">
        <ele>159</ele>
        <time>2017-01-14T11:29:34Z</time>
      </trkpt>
      <trkpt lat="47.96135" lon="-3.5357">
        <ele>161</ele>
        <time>2017-01-14T11:31:34Z</time>
      </trkpt>
      <trkpt lat="47.96139" lon="-3.53566">
        <ele>161</ele>
        <time>2017-01-14T11:33:34Z</time>
      </trkpt>
      <trkpt lat="47.96159" lon="-3.53484">
        <ele>160</ele>
        <time>2017-01-14T11:35:34Z</time>
      </trkpt>
      <trkpt lat="47.96154" lon="-3.53424">
        <ele>158</ele>
        <time>2017-01-14T11:37:34Z</time>
      </trkpt>
      <trkpt lat="47.96183" lon="-3.53258">
        <ele>160</ele>
        <time>2017-01-14T11:39:34Z</time>
      </trkpt>
      <trkpt lat="47.9612" lon="-3.53222">
        <ele>158</ele>
        <time>2017-01-14T11:41:34Z</time>
      </trkpt>
      <trkpt lat="47.96116" lon="-3.53204">
        <ele>158</ele>
        <time>2017-01-14T11:43:34Z</time>
      </trkpt>
      <trkpt lat="47.9615" lon="-3.53087">
        <ele>158</ele>
        <time>2017-01-14T11:45:34Z</time>
      </trkpt>
      <trkpt lat="47.96098" lon="-3.53029">
        <ele>157</ele>
        <time>2017-01-14T11:47:34Z</time>
      </trkpt>
      <trkpt lat="47.9606" lon="-3.52997">
        <ele>157</ele>
        <time>2017-01-14T11:49:34Z</time>
      </trkpt>
      <trkpt lat="47.96036" lon="-3.52981">
        <ele>158</ele>
        <time>2017-01-14T11:51:34Z</time>
      </trkpt>
      <trkpt lat="47.96069" lon="-3.52895">
        <ele>157</ele>
        <time>2017-01-14T11:53:34Z</time>
      </trkpt>
      <trkpt lat="47.96088" lon="-3.52749">
        <ele>157</ele>
        <time>2017-01-14T11:55:34Z</time>
      </trkpt>
      <trkpt lat="47.96122" lon="-3.52597">
        <ele>157</ele>
        <time>2017-01-14T11:57:34Z</time>
      </trkpt>
      <trkpt lat="47.96186" lon="-3.52608">
        <ele>155</ele>
        <time>2017-01-14T11:59:34Z</time>
      </trkpt>
      <trkpt lat="47.9622" lon="-3.5263">
        <ele>154</ele>
        <time>2017-01-14T12:01:34Z</time>
      </trkpt>
      <trkpt lat="47.96249" lon="-3.5264">
        <ele>153</ele>
        <time>2017-01-14T12:03:34Z</time>
      </trkpt>
      <trkpt lat="47.96255" lon="-3.52631">
        <ele>153</ele>
        <time>2017-01-14T12:05:34Z</time>
      </trkpt>
      <trkpt lat="47.96258" lon="-3.52607">
        <ele>154</ele>
        <time>2017-01-14T12:07:34Z</time>
      </trkpt>
      <trkpt lat="47.96269" lon="-3.52579">
        <ele>154</ele>
        <time>2017-01-14T12:09:34Z</time>
      </trkpt>
      <trkpt lat="47.96272" lon="-3.5256">
        <ele>154</ele>
        <time>2017-01-14T12:11:34Z</time>
      </trkpt>
      <trkpt lat="47.96264" lon="-3.52514">
        <ele>157</ele>
        <time>2017-01-14T12:13:34Z</time>
      </trkpt>
      <trkpt lat="47.96242" lon="-3.52473">
        <ele>159</ele>
        <time>2017-01-14T12:15:34Z</time>
      </trkpt>
      <trkpt lat="47.96222" lon="-3.52429">
        <ele>162</ele>
        <time>2017-01-14T12:17:34Z</time>
      </trkpt>
      <trkpt lat="47.96197" lon="-3.52401">
        <ele>164</ele>
        <time>2017-01-14T12:19:34Z</time>
      </trkpt>
      <trkpt lat="47.96181" lon="-3.52413">
        <ele>165</ele>
        <time>2017-01-14T12:21:34Z</time>
      </trkpt>
      <trkpt lat="47.96186" lon="-3.52387">
        <ele>166</ele>
        <time>2017-01-14T12:23:34Z</time>
      </trkpt>
      <trkpt lat="47.96188" lon="-3.52332">
        <ele>167</ele>
        <time>2017-01-14T12:25:34Z</time>
      </trkpt>
      <trkpt lat="47.96189" lon="-3.52299">
        <ele>168</ele>
        <time>2017-01-14T12:27:34Z</time>
      </trkpt>
      <trkpt lat="47.9606" lon="-3.5228">
        <ele>170</ele>
        <time>2017-01-14T12:29:34Z</time>
      </trkpt>
      <trkpt lat="47.96057" lon="-3.52284">
        <ele>170</ele>
        <time>2017-01-14T12:31:34Z</time>
      </trkpt>
      <trkpt lat="47.96045" lon="-3.52284">
        <ele>169</ele>
        <time>2017-01-14T12:33:34Z</time>
      </trkpt>
      <trkpt lat="47.96036" lon="-3.52283">
        <ele>169</ele>
        <time>2017-01-14T12:35:34Z</time>
      </trkpt>
      <trkpt lat="47.95974" lon="-3.52277">
        <ele>166</ele>
        <time>2017-01-14T12:37:34Z</time>
      </trkpt>
      <trkpt lat="47.95943" lon="-3.52246">
        <ele>164</ele>
        <time>2017-01-14T12:39:34Z</time>
      </trkpt>
      <trkpt lat="47.95873" lon="-3.52183">
        <ele>161</ele>
        <time>2017-01-14T12:41:34Z</time>
      </trkpt>
      <trkpt lat="47.95829" lon="-3.52147">
        <ele>159</ele>
        <time>2017-01-14T12:43:34Z</time>
      </trkpt>
      <trkpt lat="47.95757" lon="-3.52107">
        <ele>155</ele>
        <time>2017-01-14T12:45:34Z</time>
      </trkpt>
      <trkpt lat="47.95739" lon="-3.52104">
        <ele>154</ele>
        <time>2017-01-14T12:47:34Z</time>
      </trkpt>
      <trkpt lat="47.95699" lon="-3.52102">
        <ele>154</ele>
        <time>2017-01-14T12:49:34Z</time>
      </trkpt>
      <trkpt lat="47.95661" lon="-3.52107">
        <ele>154</ele>
        <time>2017-01-14T12:51:34Z</time>
      </trkpt>
      <trkpt lat="47.95629" lon="-3.521">
        <ele>153</ele>
        <time>2017-01-14T12:53:34Z</time>
      </trkpt>
      <trkpt lat="47.95432" lon="-3.52016">
        <ele>150</ele>
        <time>2017-01-14T12:55:34Z</time>
      </trkpt>
      <trkpt lat="47.95373" lon="-3.5198">
        <ele>148</ele>
        <time>2017-01-14T12:57:34Z</time>
      </trkpt>
      <trkpt lat="47.95347" lon="-3.51971">
        <ele>147</ele>
        <time>2017-01-14T12:59:34Z</time>
      </trkpt>
      <trkpt lat="47.95288" lon="-3.51956">
        <ele>143</ele>
        <time>2017-01-14T13:01:34Z</time>
      </trkpt>
      <trkpt lat="47.95281" lon="-3.51914">
        <ele>143</ele>
        <time>2017-01-14T13:03:34Z</time>
      </trkpt>
      <trkpt lat="47.95296" lon="-3.51902">
        <ele>144</ele>
        <time>2017-01-14T13:05:34Z</time>
      </trkpt>
      <trkpt lat="47.95382" lon="-3.51906">
        <ele>147</ele>
        <time>2017-01-14T13:07:34Z</time>
      </trkpt>
      <trkpt lat="47.95419" lon="-3.5188">
        <ele>147</ele>
        <time>2017-01-14T13:09:34Z</time>
      </trkpt>
      <trkpt lat="47.95483" lon="-3.518">
        <ele>149</ele>
        <time>2017-01-14T13:11:34Z</time>
      </trkpt>
      <trkpt lat="47.9555" lon="-3.5169">
        <ele>149</ele>
        <time>2017-01-14T13:13:34Z</time>
      </trkpt>
      <trkpt lat="47.95559" lon="-3.51657">
        <ele>149</ele>
        <time>2017-01-14T13:15:34Z</time>
      </trkpt>
      <trkpt lat="47.95576" lon="-3.51615">
        <ele>149</ele>
        <time>2017-01-14T13:17:34Z</time>
      </trkpt>
      <trkpt lat="47.95586" lon="-3.51598">
        <ele>148</ele>
        <time>2017-01-14T13:19:34Z</time>
      </trkpt>
      <trkpt lat="47.95583" lon="-3.51545">
        <ele>148</ele>
        <time>2017-01-14T13:21:34Z</time>
      </trkpt>
      <trkpt lat="47.95557" lon="-3.51529">
        <ele>149</ele>
        <time>2017-01-14T13:23:34Z</time>
      </trkpt>
      <trkpt lat="47.95551" lon="-3.51511">
        <ele>150</ele>
        <time>2017-01-14T13:25:34Z</time>
      </trkpt>
      <trkpt lat="47.95552" lon="-3.51473">
        <ele>151</ele>
        <time>2017-01-14T13:27:34Z</time>
      </trkpt>
      <trkpt lat="47.95562" lon="-3.51472">
        <ele>150</ele>
        <time>2017-01-14T13:29:34Z</time>
      </trkpt>
      <trkpt lat="47.95593" lon="-3.51366">
        <ele>150</ele>
        <time>2017-01-14T13:31:34Z</time>
      </trkpt>
      <trkpt lat="47.95595" lon="-3.5135">
        <ele>150</ele>
        <time>2017-01-14T13:33:34Z</time>
      </trkpt>
      <trkpt lat="47.95612" lon="-3.51321">
        <ele>150</ele>
        <time>2017-01-14T13:35:34Z</time>
      </trkpt>
      <trkpt lat="47.95618" lon="-3.51312">
        <ele>150</ele>
        <time>2017-01-14T13:37:34Z</time>
      </trkpt>
      <trkpt lat="47.9564" lon="-3.51248">
        <ele>149</ele>
        <time>2017-01-14T13:39:34Z</time>
      </trkpt>
      <trkpt lat="47.9568" lon="-3.51112">
        <ele>146</ele>
        <time>2017-01-14T13:41:34Z</time>
      </trkpt>
      <trkpt lat="47.95701" lon="-3.50998">
        <ele>147</ele>
        <time>2017-01-14T13:43:34Z</time>
      </trkpt>
      <trkpt lat="47.95715" lon="-3.50892">
        <ele>149</ele>
        <time>2017-01-14T13:45:34Z</time>
      </trkpt>
      <trkpt lat="47.9577" lon="-3.50722">
        <ele>147</ele>
        <time>2017-01-14T13:47:34Z</time>
      </trkpt>
      <trkpt lat="47.95778" lon="-3.50607">
        <ele>144</ele>
        <time>2017-01-14T13:49:34Z</time>
      </trkpt>
      <trkpt lat="47.95775" lon="-3.50577">
        <ele>143</ele>
        <time>2017-01-14T13:51:34Z</time>
      </trkpt>
      <trkpt lat="47.9576" lon="-3.50539">
        <ele>141</ele>
        <time>2017-01-14T13:53:34Z</time>
      </trkpt>
      <trkpt lat="47.95739" lon="-3.50517">
        <ele>140</ele>
        <time>2017-01-14T13:55:34Z</time>
      </trkpt>
      <trkpt lat="47.95714" lon="-3.50507">
        <ele>138</ele>
        <time>2017-01-14T13:57:34Z</time>
      </trkpt>
      <trkpt lat="47.95677" lon="-3.50508">
        <ele>135</ele>
        <time>2017-01-14T13:59:34Z</time>
      </trkpt>
      <trkpt lat="47.95576" lon="-3.50526">
        <ele>135</ele>
        <time>2017-01-14T14:01:34Z</time>
      </trkpt>
      <trkpt lat="47.95565" lon="-3.50522">
        <ele>135</ele>
        <time>2017-01-14T14:03:34Z</time>
      </trkpt>
      <trkpt lat="47.95558" lon="-3.50515">
        <ele>135</ele>
        <time>2017-01-14T14:05:34Z</time>
      </trkpt>
      <trkpt lat="47.95573" lon="-3.50497">
        <ele>134</ele>
        <time>2017-01-14T14:07:34Z</time>
      </trkpt>
      <trkpt lat="47.95571" lon="-3.50449">
        <ele>133</ele>
        <time>2017-01-14T14:09:34Z</time>
      </trkpt>
      <trkpt lat="47.95577" lon="-3.50418">
        <ele>132</ele>
        <time>2017-01-14T14:11:34Z</time>
      </trkpt>
      <trkpt lat="47.95588" lon="-3.50393">
        <ele>134</ele>
        <time>2017-01-14T14:13:34Z</time>
      </trkpt>
      <trkpt lat="47.95595" lon="-3.50368">
        <ele>135</ele>
        <time>2017-01-14T14:15:34Z</time>
      </trkpt>
      <trkpt lat="47.95595" lon="-3.50336">
        <ele>138</ele>
        <time>2017-01-14T14:17:34Z</time>
      </trkpt>
      <trkpt lat="47.9558" lon="-3.50271">
        <ele>139</ele>
        <time>2017-01-14T14:19:34Z</time>
      </trkpt>
      <trkpt lat="47.9557" lon="-3.50258">
        <ele>139</ele>
        <time>2017-01-14T14:21:34Z</time>
      </trkpt>
      <trkpt lat="47.9555" lon="-3.50258">
        <ele>139</ele>
        <time>2017-01-14T14:23:34Z</time>
      </trkpt>
      <trkpt lat="47.95536" lon="-3.50248">
        <ele>140</ele>
        <time>2017-01-14T14:25:34Z</time>
      </trkpt>
      <trkpt lat="47.9553" lon="-3.50226">
        <ele>139</ele>
        <time>2017-01-14T14:27:34Z</time>
      </trkpt>
      <trkpt lat="47.95511" lon="-3.50106">
        <ele>137</ele>
        <time>2017-01-14T14:29:34Z</time>
      </trkpt>
      <trkpt lat="47.95503" lon="-3.50081">
        <ele>137</ele>
        <time>2017-01-14T14:31:34Z</time>
      </trkpt>
      <trkpt lat="47.95478" lon="-3.50057">
        <ele>137</ele>
        <time>2017-01-14T14:33:34Z</time>
      </trkpt>
      <trkpt lat="47.95473" lon="-3.49958">
        <ele>136</ele>
        <time>2017-01-14T14:35:34Z</time>
      </trkpt>
      <trkpt lat="47.95477" lon="-3.4987">
        <ele>136</ele>
        <time>2017-01-14T14:37:34Z</time>
      </trkpt>
      <trkpt lat="47.95464" lon="-3.49767">
        <ele>136</ele>
        <time>2017-01-14T14:39:34Z</time>
      </trkpt>
      <trkpt lat="47.95444" lon="-3.49602">
        <ele>136</ele>
        <time>2017-01-14T14:41:34Z</time>
      </trkpt>
      <trkpt lat="47.95429" lon="-3.49596">
        <ele>137</ele>
        <time>2017-01-14T14:43:34Z</time>
      </trkpt>
      <trkpt lat="47.9541" lon="-3.49592">
        <ele>137</ele>
        <time>2017-01-14T14:45:34Z</time>
      </trkpt>
      <trkpt lat="47.95417" lon="-3.49593">
        <ele>137</ele>
        <time>2017-01-14T14:47:34Z</time>
      </trkpt>
      <trkpt lat="47.9535" lon="-3.49613">
        <ele>138</ele>
        <time>2017-01-14T14:49:34Z</time>
      </trkpt>
      <trkpt lat="47.95307" lon="-3.4963">
        <ele>137</ele>
        <time>2017-01-14T14:51:34Z</time>
      </trkpt>
      <trkpt lat="47.95288" lon="-3.4963">
        <ele>136</ele>
        <time>2017-01-14T14:53:34Z</time>
      </trkpt>
      <trkpt lat="47.95161" lon="-3.49647">
        <ele>134</ele>
        <time>2017-01-14T14:55:34Z</time>
      </trkpt>
      <trkpt lat="47.95118" lon="-3.49649">
        <ele>135</ele>
        <time>2017-01-14T14:57:34Z</time>
      </trkpt>
      <trkpt lat="47.95077" lon="-3.49658">
        <ele>136</ele>
        <time>2017-01-14T14:59:34Z</time>
      </trkpt>
      <trkpt lat="47.95034" lon="-3.49677">
        <ele>134</ele>
        <time>2017-01-14T15:01:34Z</time>
      </trkpt>
      <trkpt lat="47.95008" lon="-3.49687">
        <ele>133</ele>
        <time>2017-01-14T15:03:34Z</time>
      </trkpt>
      <trkpt lat="47.94973" lon="-3.4969">
        <ele>132</ele>
        <time>2017-01-14T15:05:34Z</time>
      </trkpt>
      <trkpt lat="47.94958" lon="-3.49665">
        <ele>132</ele>
        <time>2017-01-14T15:07:34Z</time>
      </trkpt>
      <trkpt lat="47.94969" lon="-3.49582">
        <ele>132</ele>
        <time>2017-01-14T15:09:34Z</time>
      </trkpt>
      <trkpt lat="47.94966" lon="-3.49541">
        <ele>131</ele>
        <time>2017-01-14T15:11:34Z</time>
      </trkpt>
      <trkpt lat="47.94934" lon="-3.49535">
        <ele>129</ele>
        <time>2017-01-14T15:13:34Z</time>
      </trkpt>
      <trkpt lat="47.94895" lon="-3.49515">
        <ele>127</ele>
        <time>2017-01-14T15:15:34Z</time>
      </trkpt>
      <trkpt lat="47.94865" lon="-3.49509">
        <ele>126</ele>
        <time>2017-01-14T15:17:34Z</time>
      </trkpt>
      <trkpt lat="47.94814" lon="-3.49488">
        <ele>123</ele>
        <time>2017-01-14T15:19:34Z</time>
      </trkpt>
      <trkpt lat="47.94775" lon="-3.49465">
        <ele>120</ele>
        <time>2017-01-14T15:21:34Z</time>
      </trkpt>
      <trkpt lat="47.94766" lon="-3.49461">
        <ele>119</ele>
        <time>2017-01-14T15:23:34Z</time>
      </trkpt>
      <trkpt lat="47.94744" lon="-3.49456">
        <ele>118</ele>
        <time>2017-01-14T15:25:34Z</time>
      </trkpt>
      <trkpt lat="47.94728" lon="-3.4944">
        <ele>116</ele>
        <time>2017-01-14T15:27:34Z</time>
      </trkpt>
      <trkpt lat="47.94716" lon="-3.49426">
        <ele>116</ele>
        <time>2017-01-14T15:29:34Z</time>
      </trkpt>
      <trkpt lat="47.94663" lon="-3.49396">
        <ele>112</ele>
        <time>2017-01-14T15:31:34Z</time>
      </trkpt>
      <trkpt lat="47.94645" lon="-3.49361">
        <ele>110</ele>
        <time>2017-01-14T15:33:34Z</time>
      </trkpt>
      <trkpt lat="47.94601" lon="-3.49306">
        <ele>105</ele>
        <time>2017-01-14T15:35:34Z</time>
      </trkpt>
      <trkpt lat="47.94579" lon="-3.49252">
        <ele>100</ele>
        <time>2017-01-14T15:37:34Z</time>
      </trkpt>
      <trkpt lat="47.94558" lon="-3.49232">
        <ele>97</ele>
        <time>2017-01-14T15:39:34Z</time>
      </trkpt>
      <trkpt lat="47.94547" lon="-3.49191">
        <ele>96</ele>
        <time>2017-01-14T15:41:34Z</time>
      </trkpt>
      <trkpt lat="47.9455" lon="-3.49178">
        <ele>96</ele>
        <time>2017-01-14T15:43:34Z</time>
      </trkpt>
      <trkpt lat="47.94585" lon="-3.49166">
        <ele>97</ele>
        <time>2017-01-14T15:45:34Z</time>
      </trkpt>
      <trkpt lat="47.94633" lon="-3.4911">
        <ele>100</ele>
        <time>2017-01-14T15:47:34Z</time>
      </trkpt>
      <trkpt lat="47.94661" lon="-3.49063">
        <ele>101</ele>
        <time>2017-01-14T15:49:34Z</time>
      </trkpt>
      <trkpt lat="47.94689" lon="-3.48971">
        <ele>106</ele>
        <time>2017-01-14T15:51:34Z</time>
      </trkpt>
      <trkpt lat="47.94703" lon="-3.48949">
        <ele>106</ele>
        <time>2017-01-14T15:53:34Z</time>
      </trkpt>
      <trkpt lat="47.94743" lon="-3.48933">
        <ele>106</ele>
        <time>2017-01-14T15:55:34Z</time>
      </trkpt>
      <trkpt lat="47.94788" lon="-3.48922">
        <ele>107</ele>
        <time>2017-01-14T15:57:34Z</time>
      </trkpt>
      <trkpt lat="47.94814" lon="-3.48897">
        <ele>109</ele>
        <time>2017-01-14T15:59:34Z</time>
      </trkpt>
      <trkpt lat="47.94854" lon="-3.48797">
        <ele>110</ele>
        <time>2017-01-14T16:01:34Z</time>
      </trkpt>
      <trkpt lat="47.94866" lon="-3.48761">
        <ele>112</ele>
        <time>2017-01-14T16:03:34Z</time>
      </trkpt>
      <trkpt lat="47.94885" lon="-3.4871">
        <ele>114</ele>
        <time>2017-01-14T16:05:34Z</time>
      </trkpt>
      <trkpt lat="47.9487" lon="-3.48629">
        <ele>117</ele>
        <time>2017-01-14T16:07:34Z</time>
      </trkpt>
      <trkpt lat="47.94852" lon="-3.4857">
        <ele>119</ele>
        <time>2017-01-14T16:09:34Z</time>
      </trkpt>
      <trkpt lat="47.94839" lon="-3.48534">
        <ele>120</ele>
        <time>2017-01-14T16:11:34Z</time>
      </trkpt>
      <trkpt lat="47.94803" lon="-3.48542">
        <ele>119</ele>
        <time>2017-01-14T16:13:34Z</time>
      </trkpt>
      <trkpt lat="47.94707" lon="-3.48584">
        <ele>119</ele>
        <time>2017-01-14T16:15:34Z</time>
      </trkpt>
      <trkpt lat="47.94615" lon="-3.48626">
        <ele>119</ele>
        <time>2017-01-14T16:17:34Z</time>
      </trkpt>
      <trkpt lat="47.94577" lon="-3.48662">
        <ele>119</ele>
        <time>2017-01-14T16:19:34Z</time>
      </trkpt>
      <trkpt lat="47.94521" lon="-3.48713">
        <ele>115</ele>
        <time>2017-01-14T16:21:34Z</time>
      </trkpt>
      <trkpt lat="47.94496" lon="-3.48722">
        <ele>114</ele>
        <time>2017-01-14T16:23:34Z</time>
      </trkpt>
      <trkpt lat="47.94458" lon="-3.4872">
        <ele>109</ele>
        <time>2017-01-14T16:25:34Z</time>
      </trkpt>
      <trkpt lat="47.94408" lon="-3.48699">
        <ele>101</ele>
        <time>2017-01-14T16:27:34Z</time>
      </trkpt>
      <trkpt lat="47.94318" lon="-3.48677">
        <ele>85</ele>
        <time>2017-01-14T16:29:34Z</time>
      </trkpt>
      <trkpt lat="47.94299" lon="-3.48673">
        <ele>83</ele>
        <time>2017-01-14T16:31:34Z</time>
      </trkpt>
      <trkpt lat="47.94292" lon="-3.48663">
        <ele>82</ele>
        <time>2017-01-14T16:33:34Z</time>
      </trkpt>
      <trkpt lat="47.9429" lon="-3.48649">
        <ele>81</ele>
        <time>2017-01-14T16:35:34Z</time>
      </trkpt>
      <trkpt lat="47.94292" lon="-3.48596">
        <ele>82</ele>
        <time>2017-01-14T16:37:34Z</time>
      </trkpt>
      <trkpt lat="47.94289" lon="-3.48588">
        <ele>82</ele>
        <time>2017-01-14T16:39:34Z</time>
      </trkpt>
      <trkpt lat="47.94282" lon="-3.48584">
        <ele>81</ele>
        <time>2017-01-14T16:41:34Z</time>
      </trkpt>
      <trkpt lat="47.94223" lon="-3.48579">
        <ele>79</ele>
        <time>2017-01-14T16:43:34Z</time>
      </trkpt>
      <trkpt lat="47.94193" lon="-3.4859">
        <ele>82</ele>
        <time>2017-01-14T16:45:34Z</time>
      </trkpt>
      <trkpt lat="47.94113" lon="-3.48711">
        <ele>94</ele>
        <time>2017-01-14T16:47:34Z</time>
      </trkpt>
      <trkpt lat="47.94126" lon="-3.48629">
        <ele>91</ele>
        <time>2017-01-14T16:49:34Z</time>
      </trkpt>
      <trkpt lat="47.9415" lon="-3.48554">
        <ele>87</ele>
        <time>2017-01-14T16:51:34Z</time>
      </trkpt>
      <trkpt lat="47.94161" lon="-3.48465">
        <ele>86</ele>
        <time>2017-01-14T16:53:34Z</time>
      </trkpt>
      <trkpt lat="47.94163" lon="-3.48265">
        <ele>89</ele>
        <time>2017-01-14T16:55:34Z</time>
      </trkpt>
      <trkpt lat="47.9417" lon="-3.48193">
        <ele>87</ele>
        <time>2017-01-14T16:57:34Z</time>
      </trkpt>
      <trkpt lat="47.94169" lon="-3.48172">
        <ele>87</ele>
        <time>2017-01-14T16:59:34Z</time>
      </trkpt>
      <trkpt lat="47.94153" lon="-3.48092">
        <ele>86</ele>
        <time>2017-01-14T17:01:34Z</time>
      </trkpt>
      <trkpt lat="47.94147" lon="-3.48005">
        <ele>83</ele>
        <time>2017-01-14T17:03:34Z</time>
      </trkpt>
      <trkpt lat="47.94148" lon="-3.47967">
        <ele>82</ele>
        <time>2017-01-14T17:05:34Z</time>
      </trkpt>
      <trkpt lat="47.94142" lon="-3.47952">
        <ele>83</ele>
        <time>2017-01-14T17:07:34Z</time>
      </trkpt>
      <trkpt lat="47.93998" lon="-3.47955">
        <ele>96</ele>
        <time>2017-01-14T17:09:34Z</time>
      </trkpt>
      <trkpt lat="47.93895" lon="-3.47964">
        <ele>101</ele>
        <time>2017-01-14T17:11:34Z</time>
      </trkpt>
      <trkpt lat="47.93849" lon="-3.47934">
        <ele>102</ele>
        <time>2017-01-14T17:13:34Z</time>
      </trkpt>
      <trkpt lat="47.93748" lon="-3.47918">
        <ele>104</ele>
        <time>2017-01-14T17:15:34Z</time>
      </trkpt>
      <trkpt lat="47.93716" lon="-3.47876">
        <ele>103</ele>
        <time>2017-01-14T17:17:34Z</time>
      </trkpt>
      <trkpt lat="47.93702" lon="-3.47861">
        <ele>103</ele>
        <time>2017-01-14T17:19:34Z</time>
      </trkpt>
      <trkpt lat="47.9369" lon="-3.47909">
        <ele>101</ele>
        <time>2017-01-14T17:21:34Z</time>
      </trkpt>
      <trkpt lat="47.93681" lon="-3.47924">
        <ele>101</ele>
        <time>2017-01-14T17:23:34Z</time>
      </trkpt>
      <trkpt lat="47.93675" lon="-3.47928">
        <ele>100</ele>
        <time>2017-01-14T17:25:34Z</time>
      </trkpt>
      <trkpt lat="47.93682" lon="-3.48028">
        <ele>99</ele>
        <time>2017-01-14T17:27:34Z</time>
      </trkpt>
      <trkpt lat="47.93677" lon="-3.4803">
        <ele>99</ele>
        <time>2017-01-14T17:29:34Z</time>
      </trkpt>
      <trkpt lat="47.93678" lon="-3.48039">
        <ele>99</ele>
        <time>2017-01-14T17:31:34Z</time>
      </trkpt>
      <trkpt lat="47.9364" lon="-3.48133">
        <ele>99</ele>
        <time>2017-01-14T17:33:34Z</time>
      </trkpt>
      <trkpt lat="47.93629" lon="-3.48265">
        <ele>98</ele>
        <time>2017-01-14T17:35:34Z</time>
      </trkpt>
      <trkpt lat="47.93625" lon="-3.48332">
        <ele>98</ele>
        <time>2017-01-14T17:37:34Z</time>
      </trkpt>
      <trkpt lat="47.93605" lon="-3.48419">
        <ele>97</ele>
        <time>2017-01-14T17:39:34Z</time>
      </trkpt>
      <trkpt lat="47.93598" lon="-3.48516">
        <ele>95</ele>
        <time>2017-01-14T17:41:34Z</time>
      </trkpt>
      <trkpt lat="47.93595" lon="-3.48594">
        <ele>94</ele>
        <time>2017-01-14T17:43:34Z</time>
      </trkpt>
      <trkpt lat="47.936" lon="-3.48802">
        <ele>97</ele>
        <time>2017-01-14T17:45:34Z</time>
      </trkpt>
      <trkpt lat="47.93602" lon="-3.48953">
        <ele>98</ele>
        <time>2017-01-14T17:47:34Z</time>
      </trkpt>
      <trkpt lat="47.93559" lon="-3.48971">
        <ele>97</ele>
        <time>2017-01-14T17:49:34Z</time>
      </trkpt>
      <trkpt lat="47.93546" lon="-3.49073">
        <ele>96</ele>
        <time>2017-01-14T17:51:34Z</time>
      </trkpt>
      <trkpt lat="47.93508" lon="-3.4912">
        <ele>95</ele>
        <time>2017-01-14T17:53:34Z</time>
      </trkpt>
      <trkpt lat="47.93492" lon="-3.4919">
        <ele>94</ele>
        <time>2017-01-14T17:55:34Z</time>
      </trkpt>
      <trkpt lat="47.93242" lon="-3.49145">
        <ele>89</ele>
        <time>2017-01-14T17:57:34Z</time>
      </trkpt>
      <trkpt lat="47.93172" lon="-3.49174">
        <ele>83</ele>
        <time>2017-01-14T17:59:34Z</time>
      </trkpt>
      <trkpt lat="47.93147" lon="-3.48987">
        <ele>87</ele>
        <time>2017-01-14T18:01:34Z</time>
      </trkpt>
      <trkpt lat="47.93149" lon="-3.4875">
        <ele>80</ele>
        <time>2017-01-14T18:03:34Z</time>
      </trkpt>
      <trkpt lat="47.93176" lon="-3.48738">
        <ele>82</ele>
        <time>2017-01-14T18:05:34Z</time>
      </trkpt>
      <trkpt lat="47.93262" lon="-3.48738">
        <ele>86</ele>
        <time>2017-01-14T18:07:34Z</time>
      </trkpt>
      <trkpt lat="47.93318" lon="-3.48717">
        <ele>87</ele>
        <time>2017-01-14T18:09:34Z</time>
      </trkpt>
      <trkpt lat="47.93309" lon="-3.48199">
        <ele>94</ele>
        <time>2017-01-14T18:11:34Z</time>
      </trkpt>
      <trkpt lat="47.93244" lon="-3.48263">
        <ele>96</ele>
        <time>2017-01-14T18:13:34Z</time>
      </trkpt>
      <trkpt lat="47.93149" lon="-3.48305">
        <ele>90</ele>
        <time>2017-01-14T18:15:34Z</time>
      </trkpt>
      <trkpt lat="47.93042" lon="-3.48291">
        <ele>79</ele>
        <time>2017-01-14T18:17:34Z</time>
      </trkpt>
      <trkpt lat="47.92961" lon="-3.48269">
        <ele>74</ele>
        <time>2017-01-14T18:19:34Z</time>
      </trkpt>
      <trkpt lat="47.93001" lon="-3.47998">
        <ele>74</ele>
        <time>2017-01-14T18:21:34Z</time>
      </trkpt>
      <trkpt lat="47.93018" lon="-3.47946">
        <ele>75</ele>
        <time>2017-01-14T18:23:34Z</time>
      </trkpt>
      <trkpt lat="47.93013" lon="-3.47912">
        <ele>74</ele>
        <time>2017-01-14T18:25:34Z</time>
      </trkpt>
      <trkpt lat="47.93045" lon="-3.47819">
        <ele>74</ele>
        <time>2017-01-14T18:27:34Z</time>
      </trkpt>
      <trkpt lat="47.93083" lon="-3.47725">
        <ele>70</ele>
        <time>2017-01-14T18:29:34Z</time>
      </trkpt>
      <trkpt lat="47.93115" lon="-3.47707">
        <ele>72</ele>
        <time>2017-01-14T18:31:34Z</time>
      </trkpt>
      <trkpt lat="47.93127" lon="-3.47693">
        <ele>72</ele>
        <time>2017-01-14T18:33:34Z</time>
      </trkpt>
      <trkpt lat="47.93126" lon="-3.47666">
        <ele>70</ele>
        <time>2017-01-14T18:35:34Z</time>
      </trkpt>
      <trkpt lat="47.93104" lon="-3.4759">
        <ele>71</ele>
        <time>2017-01-14T18:37:34Z</time>
      </trkpt>
      <trkpt lat="47.9308" lon="-3.47534">
        <ele>71</ele>
        <time>2017-01-14T18:39:34Z</time>
      </trkpt>
      <trkpt lat="47.93082" lon="-3.47426">
        <ele>75</ele>
        <time>2017-01-14T18:41:34Z</time>
      </trkpt>
      <trkpt lat="47.9311" lon="-3.47289">
        <ele>77</ele>
        <time>2017-01-14T18:43:34Z</time>
      </trkpt>
      <trkpt lat="47.93131" lon="-3.47165">
        <ele>74</ele>
        <time>2017-01-14T18:45:34Z</time>
      </trkpt>
      <trkpt lat="47.93132" lon="-3.46989">
        <ele>69</ele>
        <time>2017-01-14T18:47:34Z</time>
      </trkpt>
      <trkpt lat="47.93134" lon="-3.46892">
        <ele>64</ele>
        <time>2017-01-14T18:49:34Z</time>
      </trkpt>
      <trkpt lat="47.93127" lon="-3.46844">
        <ele>60</ele>
        <time>2017-01-14T18:51:34Z</time>
      </trkpt>
      <trkpt lat="47.93106" lon="-3.46749">
        <ele>54</ele>
        <time>2017-01-14T18:53:34Z</time>
      </trkpt>
      <trkpt lat="47.93125" lon="-3.46738">
        <ele>54</ele>
        <time>2017-01-14T18:55:34Z</time>
      </trkpt>
      <trkpt lat="47.93134" lon="-3.46695">
        <ele>52</ele>
        <time>2017-01-14T18:57:34Z</time>
      </trkpt>
      <trkpt lat="47.93146" lon="-3.46607">
        <ele>51</ele>
        <time>2017-01-14T18:59:34Z</time>
      </trkpt>
      <trkpt lat="47.93157" lon="-3.46551">
        <ele>50</ele>
        <time>2017-01-14T19:01:34Z</time>
      </trkpt>
      <trkpt lat="47.93182" lon="-3.46466">
        <ele>51</ele>
        <time>2017-01-14T19:03:34Z</time>
      </trkpt>
      <trkpt lat="47.9319" lon="-3.46392">
        <ele>50</ele>
        <time>2017-01-14T19:05:34Z</time>
      </trkpt>
      <trkpt lat="47.93201" lon="-3.46364">
        <ele>51</ele>
        <time>2017-01-14T19:07:34Z</time>
      </trkpt>
      <trkpt lat="47.93224" lon="-3.46345">
        <ele>53</ele>
        <time>2017-01-14T19:09:34Z</time>
      </trkpt>
      <trkpt lat="47.93225" lon="-3.4633">
        <ele>53</ele>
        <time>2017-01-14T19:11:34Z</time>
      </trkpt>
      <trkpt lat="47.93217" lon="-3.46303">
        <ele>51</ele>
        <time>2017-01-14T19:13:34Z</time>
      </trkpt>
      <trkpt lat="47.93215" lon="-3.46279">
        <ele>50</ele>
        <time>2017-01-14T19:15:34Z</time>
      </trkpt>
      <trkpt lat="47.93229" lon="-3.46223">
        <ele>49</ele>
        <time>2017-01-14T19:17:34Z</time>
      </trkpt>
      <trkpt lat="47.93292" lon="-3.46167">
        <ele>53</ele>
        <time>2017-01-14T19:19:34Z</time>
      </trkpt>
      <trkpt lat="47.93316" lon="-3.46149">
        <ele>54</ele>
        <time>2017-01-14T19:21:34Z</time>
      </trkpt>
      <trkpt lat="47.93351" lon="-3.46162">
        <ele>60</ele>
        <time>2017-01-14T19:23:34Z</time>
      </trkpt>
      <trkpt lat="47.93485" lon="-3.46162">
        <ele>75</ele>
        <time>2017-01-14T19:25:34Z</time>
      </trkpt>
      <trkpt lat="47.93532" lon="-3.46187">
        <ele>78</ele>
        <time>2017-01-14T19:27:34Z</time>
      </trkpt>
      <trkpt lat="47.93548" lon="-3.46217">
        <ele>81</ele>
        <time>2017-01-14T19:29:34Z</time>
      </trkpt>
      <trkpt lat="47.93552" lon="-3.46241">
        <ele>85</ele>
        <time>2017-01-14T19:31:34Z</time>
      </trkpt>
      <trkpt lat="47.93587" lon="-3.46256">
        <ele>85</ele>
        <time>2017-01-14T19:33:34Z</time>
      </trkpt>
      <trkpt lat="47.93651" lon="-3.46244">
        <ele>77</ele>
        <time>2017-01-14T19:35:34Z</time>
      </trkpt>
      <trkpt lat="47.93706" lon="-3.46251">
        <ele>75</ele>
        <time>2017-01-14T19:37:34Z</time>
      </trkpt>
      <trkpt lat="47.93762" lon="-3.46279">
        <ele>76</ele>
        <time>2017-01-14T19:39:34Z</time>
      </trkpt>
      <trkpt lat="47.93818" lon="-3.46319">
        <ele>75</ele>
        <time>2017-01-14T19:41:34Z</time>
      </trkpt>
      <trkpt lat="47.9386" lon="-3.46366">
        <ele>75</ele>
        <time>2017-01-14T19:43:34Z</time>
      </trkpt>
      <trkpt lat="47.93886" lon="-3.46418">
        <ele>78</ele>
        <time>2017-01-14T19:45:34Z</time>
      </trkpt>
      <trkpt lat="47.93913" lon="-3.46522">
        <ele>83</ele>
        <time>2017-01-14T19:47:34Z</time>
      </trkpt>
      <trkpt lat="47.93918" lon="-3.46577">
        <ele>87</ele>
        <time>2017-01-14T19:49:34Z</time>
      </trkpt>
      <trkpt lat="47.9393" lon="-3.46717">
        <ele>89</ele>
        <time>2017-01-14T19:51:34Z</time>
      </trkpt>
      <trkpt lat="47.93934" lon="-3.46783">
        <ele>89</ele>
        <time>2017-01-14T19:53:34Z</time>
      </trkpt>
      <trkpt lat="47.93934" lon="-3.46894">
        <ele>91</ele>
        <time>2017-01-14T19:55:34Z</time>
      </trkpt>
      <trkpt lat="47.93929" lon="-3.46972">
        <ele>92</ele>
        <time>2017-01-14T19:57:34Z</time>
      </trkpt>
      <trkpt lat="47.93917" lon="-3.46994">
        <ele>95</ele>
        <time>2017-01-14T19:59:34Z</time>
      </trkpt>
      <trkpt lat="47.93897" lon="-3.47011">
        <ele>95</ele>
        <time>2017-01-14T20:01:34Z</time>
      </trkpt>
      <trkpt lat="47.93891" lon="-3.47034">
        <ele>94</ele>
        <time>2017-01-14T20:03:34Z</time>
      </trkpt>
      <trkpt lat="47.93874" lon="-3.47137">
        <ele>93</ele>
        <time>2017-01-14T20:05:34Z</time>
      </trkpt>
      <trkpt lat="47.93861" lon="-3.47146">
        <ele>93</ele>
        <time>2017-01-14T20:07:34Z</time>
      </trkpt>
      <trkpt lat="47.93857" lon="-3.47164">
        <ele>94</ele>
        <time>2017-01-14T20:09:34Z</time>
      </trkpt>
      <trkpt lat="47.93825" lon="-3.47181">
        <ele>95</ele>
        <time>2017-01-14T20:11:34Z</time>
      </trkpt>
      <trkpt lat="47.9381" lon="-3.47195">
        <ele>96</ele>
        <time>2017-01-14T20:13:34Z</time>
      </trkpt>
      <trkpt lat="47.93654" lon="-3.47446">
        <ele>103</ele>
        <time>2017-01-14T20:15:34Z</time>
      </trkpt>
      <trkpt lat="47.93811" lon="-3.47197">
        <ele>96</ele>
        <time>2017-01-14T20:17:34Z</time>
      </trkpt>
    </trkseg>
  </trk>
</gpx>